HIGHLAND LAKE: From 09/20/2018 00:00 to 11/21/2018 00:00

Date LAKE ELEVATION [FT] OBSERVED RELEASE PRECIPITATION INCREMENT [IN] PRECIPITATION TOTAL [IN] AIR TEMPERATURE [F] RELATIVE HUMIDITY [%]
11/19/2018 15:00 1293.39 143.0 0.00 -- 33.5 99.0
11/19/2018 14:00 1293.41 144.0 0.00 -- 31.8 99.0
11/19/2018 13:00 1293.42 120.0 0.00 -- 29.8 100.0
11/19/2018 12:00 1293.42 120.0 0.00 -- 28.2 99.0
11/19/2018 11:00 1293.43 120.0 0.00 -- 27.1 99.0
11/19/2018 10:00 1293.44 121.0 0.00 -- 27.0 99.0
11/19/2018 09:00 1293.44 121.0 0.00 -- 26.8 99.0
11/19/2018 08:00 1293.44 122.0 0.00 -- 26.7 99.0
11/19/2018 07:00 1293.45 122.0 0.00 -- 26.6 99.0
11/19/2018 06:00 1293.45 123.0 0.00 -- 26.4 99.0
11/19/2018 05:00 1293.46 123.0 0.00 -- 26.2 99.0
11/19/2018 04:00 1293.47 123.0 0.00 -- 25.9 99.0
11/19/2018 03:00 1293.47 123.0 0.00 -- 26.0 99.0
11/19/2018 02:00 1293.47 124.0 0.00 -- 26.2 95.0
11/19/2018 01:00 1293.48 124.0 0.00 -- 26.2 95.0
11/19/2018 00:00 1293.48 124.0 0.00 -- 26.2 87.0
11/18/2018 23:00 1293.49 124.0 0.00 -- 25.8 93.0
11/18/2018 22:00 1293.49 125.0 0.00 -- 25.8 91.0
11/18/2018 21:00 1293.50 125.0 0.00 -- 26.1 88.0
11/18/2018 20:00 1293.51 126.0 0.00 -- 26.3 84.0
11/18/2018 19:00 1293.51 126.0 0.00 -- 26.7 81.0
11/18/2018 18:00 1293.52 126.0 0.00 -- 27.8 72.0
11/18/2018 17:00 1293.52 126.0 0.00 -- 29.3 60.0
11/18/2018 16:00 1293.53 127.0 0.00 -- 30.1 57.0
11/18/2018 15:00 1293.53 127.0 0.00 -- 29.8 57.0
11/18/2018 14:00 1293.55 128.0 0.00 -- 29.2 53.0
11/18/2018 13:00 1293.55 128.0 0.00 -- 29.0 51.0
11/18/2018 12:00 1293.55 129.0 0.00 -- 27.6 57.0
11/18/2018 11:00 1293.57 129.0 0.00 -- 26.6 58.0
11/18/2018 10:00 1293.57 129.0 0.00 -- 25.5 62.0
11/18/2018 09:00 1293.59 130.0 0.00 -- 24.7 66.0
11/18/2018 08:00 1293.59 130.0 0.00 -- 24.5 68.0
11/18/2018 07:00 1293.59 131.0 0.01 -- 25.3 68.0
11/18/2018 06:00 1293.60 131.0 0.00 -- 26.7 65.0
11/18/2018 05:00 1293.62 132.0 0.00 -- 28.1 68.0
11/18/2018 04:00 1293.62 132.0 0.00 -- 29.1 74.0
11/18/2018 03:00 1293.61 133.0 0.00 -- 30.5 69.0
11/18/2018 02:00 1293.63 133.0 0.00 -- 30.8 74.0
11/18/2018 01:00 1293.63 133.0 0.01 -- 30.8 82.0
11/18/2018 00:00 1293.64 133.0 0.01 0.02 31.6 74.0
11/17/2018 23:00 1293.64 134.0 0.00 -- 31.7 73.0
11/17/2018 22:00 1293.66 134.0 0.02 -- 32.6 69.0
11/17/2018 21:00 1293.65 135.0 0.01 -- 33.2 69.0
11/17/2018 20:00 1293.65 135.0 0.03 -- 33.5 73.0
11/17/2018 19:00 1293.66 135.0 0.03 -- 34.3 68.0
11/17/2018 18:00 1293.67 135.0 0.00 -- 34.3 70.0
11/17/2018 17:00 1293.68 136.0 0.00 -- 35.0 69.0
11/17/2018 16:00 1293.68 137.0 0.00 -- 35.5 70.0
11/17/2018 15:00 1293.70 136.0 0.00 -- 36.9 66.0
11/17/2018 14:00 1293.71 136.0 0.00 -- 37.8 58.0
11/17/2018 13:00 1293.70 138.0 0.00 -- 37.6 58.0
11/17/2018 12:00 1293.71 137.0 0.00 -- 36.4 71.0
11/17/2018 11:00 1293.72 138.0 0.00 -- 35.7 74.0
11/17/2018 10:00 1293.74 138.0 0.01 -- 34.8 75.0
11/17/2018 09:00 1293.73 139.0 0.00 -- 33.9 78.0
11/17/2018 08:00 1293.74 139.0 0.01 -- 33.6 78.0
11/17/2018 07:00 1293.75 140.0 0.01 -- 33.5 77.0
11/17/2018 06:00 1293.75 140.0 0.01 -- 33.5 79.0
11/17/2018 05:00 1293.77 141.0 0.02 -- 33.2 78.0
11/17/2018 04:00 1293.77 142.0 0.01 -- 32.8 79.0
11/17/2018 03:00 1293.76 142.0 0.01 -- 32.7 78.0
11/17/2018 02:00 1293.79 142.0 0.00 -- 32.5 77.0
11/17/2018 01:00 1293.79 142.0 0.00 -- 31.8 78.0
11/17/2018 00:00 1293.79 144.0 0.00 0.18 32.0 81.0
11/16/2018 23:00 1293.81 144.0 0.00 -- 31.8 83.0
11/16/2018 22:00 1293.81 144.0 0.00 -- 30.3 89.0
11/16/2018 21:00 1293.82 144.0 0.00 -- 29.1 92.0
11/16/2018 20:00 1293.82 144.0 0.00 -- 28.8 89.0
11/16/2018 19:00 1293.83 145.0 0.00 -- 28.2 90.0
11/16/2018 18:00 1293.83 145.0 0.00 -- 27.3 95.0
11/16/2018 17:00 1293.84 145.0 0.00 -- 27.3 91.0
11/16/2018 16:00 1293.85 146.0 0.00 -- 27.1 88.0
11/16/2018 15:00 1293.86 147.0 0.01 -- 26.7 87.0
11/16/2018 14:00 1293.85 147.0 0.00 -- 28.0 88.0
11/16/2018 13:00 1293.86 147.0 0.00 -- 26.2 99.0
11/16/2018 12:00 1293.89 147.0 0.00 -- 25.5 99.0
11/16/2018 11:00 1293.87 148.0 0.00 -- 25.0 99.0
11/16/2018 10:00 1293.89 148.0 0.00 -- 23.8 99.0
11/16/2018 09:00 1293.88 149.0 0.00 -- 23.3 99.0
11/16/2018 08:00 1293.90 149.0 0.00 -- 23.3 99.0
11/16/2018 07:00 1293.89 150.0 0.00 -- 23.2 99.0
11/16/2018 06:00 1293.91 150.0 0.00 -- 23.0 99.0
11/16/2018 05:00 1293.91 149.0 0.00 -- 22.3 99.0
11/16/2018 04:00 1293.92 150.0 0.00 -- 21.1 99.0
11/16/2018 03:00 1293.91 150.0 0.00 -- 21.2 99.0
11/16/2018 02:00 1293.92 150.0 0.00 -- 20.0 99.0
11/16/2018 01:00 1293.92 151.0 0.00 -- 19.4 99.0
11/16/2018 00:00 1293.92 150.0 0.00 0.01 18.8 97.0
11/15/2018 23:00 1293.91 151.0 0.00 -- 18.4 91.0
11/15/2018 22:00 1293.91 151.0 0.00 -- 19.0 80.0
11/15/2018 21:00 1293.92 150.0 0.00 -- 21.4 43.0
11/15/2018 20:00 1293.94 151.0 0.00 -- 21.7 44.0
11/15/2018 19:00 1293.94 151.0 0.00 -- 22.1 43.0
11/15/2018 18:00 1293.94 152.0 0.00 -- 22.8 41.0
11/15/2018 17:00 1293.95 152.0 0.00 -- 23.5 38.0
11/15/2018 16:00 1293.96 153.0 0.00 -- 24.2 36.0
11/15/2018 15:00 1293.97 153.0 0.00 -- 24.8 36.0
11/15/2018 14:00 1293.96 154.0 0.02 -- 25.3 40.0
11/15/2018 13:00 1293.97 154.0 0.00 -- 23.1 38.0
11/15/2018 12:00 1293.98 193.0 0.00 -- 21.6 38.0
11/15/2018 11:00 1293.98 193.0 0.00 -- 18.7 47.0
11/15/2018 10:00 1293.99 193.0 0.00 -- 16.9 54.0
11/15/2018 09:00 1293.99 193.0 0.00 -- 15.5 59.0
11/15/2018 08:00 1294.00 193.0 0.00 -- 13.8 65.0
11/15/2018 07:00 1294.01 193.0 0.00 -- 13.1 63.0
11/15/2018 06:00 1294.03 156.0 0.00 -- 12.5 67.0
11/15/2018 05:00 1294.03 157.0 0.00 -- 12.5 65.0
11/15/2018 04:00 1294.03 156.0 0.00 -- 13.2 63.0
11/15/2018 03:00 1294.03 158.0 0.00 -- 13.0 62.0
11/15/2018 02:00 1294.05 157.0 0.00 -- 12.9 65.0
11/15/2018 01:00 1294.03 158.0 0.00 -- 13.5 62.0
11/15/2018 00:00 1294.05 158.0 0.00 0.02 14.0 57.0
11/14/2018 23:00 1294.05 159.0 0.00 -- 14.6 57.0
11/14/2018 22:00 1294.08 158.0 0.00 -- 14.7 59.0
11/14/2018 21:00 1294.06 159.0 0.00 -- 15.7 60.0
11/14/2018 20:00 1294.06 161.0 0.00 -- 17.7 51.0
11/14/2018 19:00 1294.08 160.0 0.00 -- 19.2 43.0
11/14/2018 18:00 1294.10 160.0 0.00 -- 20.3 39.0
11/14/2018 17:00 1294.08 163.0 0.00 -- 21.7 38.0
11/14/2018 16:00 1294.07 162.0 0.00 -- 22.5 35.0
11/14/2018 15:00 1294.12 160.0 0.00 -- 24.1 33.0
11/14/2018 14:00 1294.12 161.0 0.00 -- 24.3 35.0
11/14/2018 13:00 1294.08 163.0 0.00 -- 22.9 33.0
11/14/2018 12:00 1294.04 162.0 0.00 -- 21.9 37.0
11/14/2018 11:00 1294.08 158.0 0.00 -- 22.9 40.0
11/14/2018 10:00 1294.08 161.0 0.00 -- 22.0 46.0
11/14/2018 09:00 1294.08 162.0 0.00 -- 20.4 85.0
11/14/2018 08:00 1294.06 163.0 0.00 -- 22.9 55.0
11/14/2018 07:00 1294.09 161.0 0.00 -- 22.2 64.0
11/14/2018 06:00 1294.07 160.0 0.00 -- 21.7 63.0
11/14/2018 05:00 1294.06 160.0 0.00 -- 22.0 62.0
11/14/2018 04:00 1294.06 158.0 0.00 -- 22.5 58.0
11/14/2018 03:00 1294.06 159.0 0.00 -- 23.6 61.0
11/14/2018 02:00 1294.05 160.0 0.00 -- 24.3 76.0
11/14/2018 01:00 1294.04 160.0 0.00 -- 26.5 57.0
11/14/2018 00:00 1294.05 159.0 0.00 0.00 29.5 55.0
11/13/2018 23:00 1294.06 159.0 0.00 -- 31.1 58.0
11/13/2018 22:00 1294.02 160.0 0.00 -- 32.9 80.0
11/13/2018 21:00 1294.02 157.0 0.00 -- 32.7 87.0
11/13/2018 20:00 1294.00 158.0 0.00 -- 33.1 90.0
11/13/2018 19:00 1293.99 157.0 0.00 -- 33.0 93.0
11/13/2018 18:00 1294.00 155.0 0.00 -- 32.8 99.0
11/13/2018 17:00 1294.00 155.0 0.00 -- 33.5 99.0
11/13/2018 16:00 1293.97 156.0 0.01 -- 35.0 100.0
11/13/2018 15:00 1293.98 153.0 0.01 -- 34.0 100.0
11/13/2018 14:00 1293.97 154.0 0.03 -- 34.5 100.0
11/13/2018 13:00 1293.96 153.0 0.06 -- 33.5 100.0
11/13/2018 12:00 1293.94 153.0 0.12 -- 33.2 100.0
11/13/2018 11:00 1293.93 152.0 0.15 -- 32.8 100.0
11/13/2018 10:00 1293.93 152.0 0.14 -- 32.1 100.0
11/13/2018 09:00 1293.93 151.0 0.14 -- 31.5 100.0
11/13/2018 08:00 1293.93 151.0 0.13 -- 31.1 100.0
11/13/2018 07:00 1293.93 151.0 0.08 -- 30.9 100.0
11/13/2018 06:00 1293.93 151.0 0.01 -- 30.6 100.0
11/13/2018 05:00 1293.93 152.0 0.00 -- 30.8 100.0
11/13/2018 04:00 1293.93 151.0 0.02 -- 30.8 99.0
11/13/2018 03:00 1293.93 151.0 0.00 -- 31.9 99.0
11/13/2018 02:00 1293.93 151.0 0.00 -- 31.6 87.0
11/13/2018 01:00 1293.94 151.0 0.00 -- 31.8 87.0
11/13/2018 00:00 1293.95 152.0 0.00 0.90 32.6 80.0
11/12/2018 23:00 1293.95 152.0 0.00 -- 33.5 71.0
11/12/2018 22:00 1293.96 153.0 0.00 -- 29.2 85.0
11/12/2018 21:00 1293.97 153.0 0.00 -- 28.4 86.0
11/12/2018 20:00 1293.98 154.0 0.00 -- 28.0 82.0
11/12/2018 19:00 1293.99 155.0 0.00 -- 28.0 77.0
11/12/2018 18:00 1294.01 155.0 0.00 -- 29.5 70.0
11/12/2018 17:00 1294.01 156.0 0.00 -- 34.1 58.0
11/12/2018 16:00 1294.01 156.0 0.00 -- 38.4 49.0
11/12/2018 15:00 1294.02 156.0 0.00 -- 38.8 46.0
11/12/2018 14:00 1294.02 158.0 0.00 -- 39.2 44.0
11/12/2018 13:00 1294.02 157.0 0.00 -- 37.7 49.0
11/12/2018 12:00 1294.04 157.0 0.00 -- 34.4 55.0
11/12/2018 11:00 1294.05 158.0 0.00 -- 32.4 57.0
11/12/2018 10:00 1294.06 158.0 0.00 -- 27.6 72.0
11/12/2018 09:00 1294.07 159.0 0.00 -- 22.1 96.0
11/12/2018 08:00 1294.08 160.0 0.00 -- 19.4 98.0
11/12/2018 07:00 1294.10 161.0 0.00 -- 19.1 97.0
11/12/2018 06:00 1294.10 161.0 0.00 -- 18.7 96.0
11/12/2018 05:00 1294.11 162.0 0.00 -- 18.9 98.0
11/12/2018 04:00 1294.12 163.0 0.00 -- 19.6 96.0
11/12/2018 03:00 1294.12 163.0 0.00 -- 20.2 89.0
11/12/2018 02:00 1294.13 163.0 0.00 -- 20.9 88.0
11/12/2018 01:00 1294.14 164.0 0.00 -- 21.6 74.0
11/12/2018 00:00 1294.15 165.0 0.00 0.00 23.1 69.0
11/11/2018 23:00 1294.16 165.0 0.00 -- 25.0 62.0
11/11/2018 22:00 1294.16 165.0 0.00 -- 27.0 55.0
11/11/2018 21:00 1294.17 165.0 0.00 -- 26.4 58.0
11/11/2018 20:00 1294.18 166.0 0.00 -- 27.5 55.0
11/11/2018 19:00 1294.18 167.0 0.00 -- 29.3 45.0
11/11/2018 18:00 1294.19 166.0 0.00 -- 29.6 46.0
11/11/2018 17:00 1294.20 167.0 0.00 -- 32.2 37.0
11/11/2018 16:00 1294.19 168.0 0.00 -- 33.1 29.0
11/11/2018 15:00 1294.22 168.0 0.00 -- 33.7 30.0
11/11/2018 14:00 1294.22 170.0 0.00 -- 34.2 31.0
11/11/2018 13:00 1294.21 168.0 0.00 -- 32.5 33.0
11/11/2018 12:00 1294.21 170.0 0.00 -- 30.8 45.0
11/11/2018 11:00 1294.23 169.0 0.00 -- 29.2 50.0
11/11/2018 10:00 1294.24 170.0 0.00 -- 27.7 53.0
11/11/2018 09:00 1294.24 171.0 0.00 -- 26.0 53.0
11/11/2018 08:00 1294.24 170.0 0.00 -- 25.2 57.0
11/11/2018 07:00 1294.25 171.0 0.00 -- 25.4 57.0
11/11/2018 06:00 1294.25 172.0 0.00 -- 25.3 56.0
11/11/2018 05:00 1294.27 169.0 0.00 -- 25.3 59.0
11/11/2018 04:00 1294.26 172.0 0.00 -- 26.2 56.0
11/11/2018 03:00 1294.26 172.0 0.00 -- 27.0 58.0
11/11/2018 02:00 1294.27 171.0 0.00 -- 28.0 56.0
11/11/2018 01:00 1294.26 172.0 0.00 -- 28.9 60.0
11/11/2018 00:00 1294.26 171.0 0.00 0.00 29.2 61.0
11/10/2018 23:00 1294.24 172.0 0.00 -- 29.7 64.0
11/10/2018 22:00 1294.25 170.0 0.00 -- 29.1 64.0
11/10/2018 21:00 1294.25 170.0 0.00 -- 29.0 58.0
11/10/2018 20:00 1294.24 170.0 0.00 -- 28.6 55.0
11/10/2018 19:00 1294.21 170.0 0.00 -- 28.4 50.0
11/10/2018 18:00 1294.24 170.0 0.00 -- 29.2 46.0
11/10/2018 17:00 1294.24 170.0 0.00 -- 31.2 42.0
11/10/2018 16:00 1294.24 169.0 0.00 -- 33.4 46.0
11/10/2018 15:00 1294.24 171.0 0.01 -- 33.1 44.0
11/10/2018 14:00 1294.17 171.0 0.00 -- 35.2 47.0
11/10/2018 13:00 1294.21 170.0 0.00 -- 37.0 63.0
11/10/2018 12:00 1294.23 168.0 0.00 -- 35.8 81.0
11/10/2018 11:00 1294.19 169.0 0.02 -- 34.8 99.0
11/10/2018 10:00 1294.22 168.0 0.00 -- 36.7 99.0
11/10/2018 09:00 1294.22 168.0 0.02 -- 36.0 100.0
11/10/2018 08:00 1294.20 168.0 0.01 -- 34.8 100.0
11/10/2018 07:00 1294.20 168.0 0.02 -- 34.5 100.0
11/10/2018 06:00 1294.22 168.0 0.01 -- 34.8 100.0
11/10/2018 05:00 1294.20 168.0 0.02 -- 36.4 100.0
11/10/2018 04:00 1294.19 167.0 0.03 -- 36.5 100.0
11/10/2018 03:00 1294.18 167.0 0.02 -- 36.0 100.0
11/10/2018 02:00 1294.19 167.0 0.05 -- 35.8 100.0
11/10/2018 01:00 1294.19 167.0 0.09 -- 35.8 100.0
11/10/2018 00:00 1294.19 167.0 0.07 0.30 35.4 100.0
11/09/2018 23:00 1294.18 167.0 0.11 -- 34.8 100.0
11/09/2018 22:00 1294.18 166.0 0.09 -- 33.6 100.0
11/09/2018 21:00 1294.17 167.0 0.17 -- 32.3 100.0
11/09/2018 20:00 1294.16 167.0 0.08 -- 33.3 100.0
11/09/2018 19:00 1294.16 165.0 0.01 -- 34.9 99.0
11/09/2018 18:00 1294.19 165.0 0.00 -- 36.1 87.0
11/09/2018 17:00 1294.20 167.0 0.00 -- 36.5 78.0
11/09/2018 16:00 1294.20 167.0 0.00 -- 36.6 78.0
11/09/2018 15:00 1294.21 168.0 0.00 -- 36.8 78.0
11/09/2018 14:00 1294.22 169.0 0.00 -- 37.0 74.0
11/09/2018 13:00 1294.24 169.0 0.00 -- 36.9 71.0
11/09/2018 12:00 1294.25 170.0 0.00 -- 36.5 69.0
11/09/2018 11:00 1294.25 171.0 0.00 -- 35.2 75.0
11/09/2018 10:00 1294.26 172.0 0.00 -- 31.5 99.0
11/09/2018 09:00 1294.29 172.0 0.00 -- 27.3 99.0
11/09/2018 08:00 1294.29 172.0 0.00 -- 25.3 99.0
11/09/2018 07:00 1294.30 174.0 0.00 -- 25.0 99.0
11/09/2018 06:00 1294.32 174.0 0.00 -- 25.7 99.0
11/09/2018 05:00 1294.34 175.0 0.00 -- 26.1 99.0
11/09/2018 04:00 1294.33 176.0 0.00 -- 26.9 99.0
11/09/2018 03:00 1294.36 177.0 0.00 -- 28.0 99.0
11/09/2018 02:00 1294.37 178.0 0.00 -- 27.9 99.0
11/09/2018 01:00 1294.37 178.0 0.00 -- 28.7 99.0
11/09/2018 00:00 1294.39 179.0 0.00 0.53 28.8 99.0
11/08/2018 23:00 1294.39 179.0 0.00 -- 30.2 96.0
11/08/2018 22:00 1294.41 180.0 0.00 -- 33.1 85.0
11/08/2018 21:00 1294.42 181.0 0.00 -- 35.8 80.0
11/08/2018 20:00 1294.43 181.0 0.00 -- 37.5 67.0
11/08/2018 19:00 1294.44 182.0 0.00 -- 37.1 71.0
11/08/2018 18:00 1294.45 183.0 0.00 -- 38.9 66.0
11/08/2018 17:00 1294.47 183.0 0.00 -- 40.4 58.0
11/08/2018 16:00 1294.48 184.0 0.00 -- 41.1 56.0
11/08/2018 15:00 1294.49 185.0 0.00 -- 41.2 54.0
11/08/2018 14:00 1294.49 185.0 0.00 -- 41.1 55.0
11/08/2018 13:00 1294.51 187.0 0.00 -- 40.6 57.0
11/08/2018 12:00 1294.54 187.0 0.00 -- 41.5 56.0
11/08/2018 11:00 1294.53 188.0 0.00 -- 40.7 57.0
11/08/2018 10:00 1294.55 188.0 0.00 -- 38.9 61.0
11/08/2018 09:00 1294.54 189.0 0.00 -- 33.7 82.0
11/08/2018 08:00 1294.55 190.0 0.00 -- 31.9 83.0
11/08/2018 07:00 1294.58 191.0 0.00 -- 35.7 66.0
11/08/2018 06:00 1294.59 191.0 0.00 -- 35.8 69.0
11/08/2018 05:00 1294.58 191.0 0.00 -- 36.3 66.0
11/08/2018 04:00 1294.60 191.0 0.00 -- 36.6 65.0
11/08/2018 03:00 1294.61 193.0 0.00 -- 37.6 64.0
11/08/2018 02:00 1294.61 193.0 0.00 -- 37.4 70.0
11/08/2018 01:00 1294.63 193.0 0.00 -- 39.9 63.0
11/08/2018 00:00 1294.62 194.0 0.00 0.00 41.1 58.0
11/07/2018 23:00 1294.65 195.0 0.00 -- 38.7 78.0
11/07/2018 22:00 1294.65 195.0 0.00 -- 34.3 99.0
11/07/2018 21:00 1294.65 196.0 0.00 -- 34.9 99.0
11/07/2018 20:00 1294.67 195.0 0.00 -- 36.5 96.0
11/07/2018 19:00 1294.67 197.0 0.00 -- 39.2 86.0
11/07/2018 18:00 1294.68 199.0 0.00 -- 43.5 65.0
11/07/2018 17:00 1294.68 198.0 0.00 -- 48.8 47.0
11/07/2018 16:00 1294.69 195.0 0.00 -- 49.8 44.0
11/07/2018 15:00 1294.67 200.0 0.00 -- 51.0 45.0
11/07/2018 14:00 1294.69 200.0 0.00 -- 52.2 44.0
11/07/2018 13:00 1294.64 197.0 0.00 -- 51.3 48.0
11/07/2018 12:00 1294.69 199.0 0.01 -- 49.9 51.0
11/07/2018 11:00 1294.70 199.0 0.00 -- 48.7 56.0
11/07/2018 10:00 1294.69 201.0 0.00 -- 47.5 59.0
11/07/2018 09:00 1294.70 202.0 0.00 -- 45.7 63.0
11/07/2018 08:00 1294.70 200.0 0.00 -- 43.8 72.0
11/07/2018 07:00 1294.68 201.0 0.00 -- 43.8 75.0
11/07/2018 06:00 1294.69 201.0 0.00 -- 44.6 75.0
11/07/2018 05:00 1294.70 199.0 0.00 -- 45.3 81.0
11/07/2018 04:00 1294.69 201.0 0.00 -- 47.1 91.0
11/07/2018 03:00 1294.68 200.0 0.00 -- 46.6 100.0
11/07/2018 02:00 1294.68 197.0 0.00 -- 46.6 100.0
11/07/2018 01:00 1294.65 198.0 0.00 -- 47.1 100.0
11/07/2018 00:00 1294.65 195.0 0.00 0.01 47.2 100.0
11/06/2018 23:00 1294.63 195.0 0.00 -- 47.4 100.0
11/06/2018 22:00 1294.61 194.0 0.00 -- 47.5 100.0
11/06/2018 21:00 1294.61 193.0 0.00 -- 47.8 100.0
11/06/2018 20:00 1294.61 193.0 0.01 -- 48.1 100.0
11/06/2018 19:00 1294.60 193.0 0.04 -- 46.0 100.0
11/06/2018 18:00 1294.60 192.0 0.09 -- 44.3 100.0
11/06/2018 17:00 1294.58 191.0 0.02 -- 44.5 100.0
11/06/2018 16:00 1294.58 191.0 0.05 -- 44.5 100.0
11/06/2018 15:00 1294.56 191.0 0.24 -- 43.1 100.0
11/06/2018 14:00 1294.55 189.0 0.17 -- 42.5 100.0
11/06/2018 13:00 1294.55 189.0 0.02 -- 42.3 100.0
11/06/2018 12:00 1294.55 189.0 0.01 -- 42.2 100.0
11/06/2018 11:00 1294.55 190.0 0.01 -- 41.8 100.0
11/06/2018 10:00 1294.57 190.0 0.00 -- 40.8 100.0
11/06/2018 09:00 1294.58 191.0 0.00 -- 39.9 100.0
11/06/2018 08:00 1294.58 191.0 0.02 -- 39.3 100.0
11/06/2018 07:00 1294.60 192.0 0.00 -- 39.4 100.0
11/06/2018 06:00 1294.61 193.0 0.01 -- 38.9 100.0
11/06/2018 05:00 1294.62 193.0 0.01 -- 38.7 100.0
11/06/2018 04:00 1294.64 195.0 0.00 -- 38.3 100.0
11/06/2018 03:00 1294.66 195.0 0.01 -- 37.7 100.0
11/06/2018 02:00 1294.66 197.0 0.01 -- 37.7 100.0
11/06/2018 01:00 1294.66 199.0 0.05 -- 37.0 100.0
11/06/2018 00:00 1294.70 198.0 0.02 0.77 36.8 100.0
11/05/2018 23:00 1294.69 200.0 0.05 -- 36.6 100.0
11/05/2018 22:00 1294.71 203.0 0.06 -- 35.9 100.0
11/05/2018 21:00 1294.71 202.0 0.02 -- 35.7 100.0
11/05/2018 20:00 1294.75 203.0 0.01 -- 36.2 100.0
11/05/2018 19:00 1294.76 207.0 0.00 -- 35.3 100.0
11/05/2018 18:00 1294.77 209.0 0.00 -- 34.8 100.0
11/05/2018 17:00 1294.79 212.0 0.00 -- 34.5 100.0
11/05/2018 16:00 1294.80 219.0 0.00 -- 34.7 99.0
11/05/2018 15:00 1294.82 220.0 0.00 -- 35.3 99.0
11/05/2018 14:00 1294.86 223.0 0.00 -- 35.1 99.0
11/05/2018 13:00 1294.86 228.0 0.00 -- 34.2 95.0
11/05/2018 12:00 1294.88 228.0 0.00 -- 33.6 92.0
11/05/2018 11:00 1294.92 233.0 0.00 -- 33.3 91.0
11/05/2018 10:00 1294.93 -- 0.00 -- 32.7 86.0
11/05/2018 09:00 1294.95 246.0 0.00 -- 31.7 86.0
11/05/2018 08:00 1294.97 248.0 0.00 -- 30.7 84.0
11/05/2018 07:00 1295.00 255.0 0.00 -- 31.0 87.0
11/05/2018 06:00 1295.01 264.0 0.00 -- 31.2 88.0
11/05/2018 05:00 1295.04 270.0 0.00 -- 30.6 88.0
11/05/2018 04:00 1295.06 272.0 0.00 -- 30.1 85.0
11/05/2018 03:00 1295.08 285.0 0.00 -- 28.6 99.0
11/05/2018 02:00 1295.10 285.0 0.00 -- 27.8 100.0
11/05/2018 01:00 1295.14 294.0 0.00 -- 27.5 100.0
11/05/2018 00:00 1295.16 298.0 0.00 0.16 27.9 100.0
11/04/2018 23:00 1295.18 308.0 0.00 -- 28.2 100.0
11/04/2018 22:00 1295.21 317.0 0.00 -- 28.9 99.0
11/04/2018 21:00 1295.24 323.0 0.00 -- 30.0 99.0
11/04/2018 20:00 1295.28 334.0 0.00 -- 31.3 99.0
11/04/2018 19:00 1295.29 341.0 0.00 -- 33.3 94.0
11/04/2018 18:00 1295.33 351.0 0.00 -- 36.1 76.0
11/04/2018 17:00 1295.37 354.0 0.00 -- 40.5 57.0
11/04/2018 16:00 1295.38 371.0 0.00 -- 42.0 48.0
11/04/2018 15:00 1295.39 374.0 0.00 -- 42.3 50.0
11/04/2018 14:00 1295.42 386.0 0.00 -- 42.3 52.0
11/04/2018 13:00 1295.45 399.0 0.00 -- 40.6 52.0
11/04/2018 12:00 1295.47 404.0 0.00 -- 38.8 54.0
11/04/2018 11:00 1295.53 411.0 0.00 -- 36.7 59.0
11/04/2018 10:00 1295.55 425.0 0.00 -- 35.2 64.0
11/04/2018 09:00 1295.55 431.0 0.00 -- 33.5 69.0
11/04/2018 08:00 1295.59 438.0 0.00 -- 30.8 86.0
11/04/2018 07:00 1295.61 453.0 0.00 -- 29.6 96.0
11/04/2018 06:00 1295.64 463.0 0.00 -- 30.4 89.0
11/04/2018 05:00 1295.67 478.0 0.00 -- 30.5 92.0
11/04/2018 04:00 1295.67 480.0 0.00 -- 33.9 76.0
11/04/2018 03:00 1295.70 482.0 0.00 -- 35.2 68.0
11/04/2018 02:00 1295.71 502.0 0.00 -- 35.3 69.0
11/04/2018 01:00 1295.72 502.0 0.00 -- 36.5 66.0
11/04/2018 00:00 1295.76 507.0 0.00 0.00 37.7 63.0
11/03/2018 23:00 1295.75 516.0 0.00 -- 37.6 70.0
11/03/2018 22:00 1295.77 518.0 0.00 -- 38.1 68.0
11/03/2018 21:00 1295.76 517.0 0.00 -- 38.1 70.0
11/03/2018 20:00 1295.76 525.0 0.00 -- 39.0 69.0
11/03/2018 19:00 1295.73 517.0 0.00 -- 39.5 75.0
11/03/2018 18:00 1295.72 496.0 0.01 -- 40.8 70.0
11/03/2018 17:00 1295.75 507.0 0.00 -- 40.7 89.0
11/03/2018 16:00 1295.68 493.0 0.01 -- 42.3 96.0
11/03/2018 15:00 1295.68 490.0 0.19 -- 43.3 100.0
11/03/2018 14:00 1295.60 471.0 0.01 -- 49.6 100.0
11/03/2018 13:00 1295.57 452.0 0.01 -- 49.2 100.0
11/03/2018 12:00 1295.51 435.0 0.00 -- 48.8 100.0
11/03/2018 11:00 1295.45 418.0 0.00 -- 49.0 100.0
11/03/2018 10:00 1295.39 398.0 0.03 -- 48.4 100.0
11/03/2018 09:00 1295.32 376.0 0.07 -- 48.4 100.0
11/03/2018 08:00 1295.25 349.0 0.08 -- 48.3 100.0
11/03/2018 07:00 1295.19 331.0 0.06 -- 48.6 100.0
11/03/2018 06:00 1295.12 311.0 0.10 -- 48.8 100.0
11/03/2018 05:00 1295.06 291.0 0.04 -- 49.0 100.0
11/03/2018 04:00 1295.02 276.0 0.07 -- 49.4 100.0
11/03/2018 03:00 1294.98 266.0 0.08 -- 49.8 100.0
11/03/2018 02:00 1294.94 253.0 0.15 -- 49.9 100.0
11/03/2018 01:00 1294.88 240.0 0.04 -- 49.7 100.0
11/03/2018 00:00 1294.86 236.0 0.36 0.95 49.7 100.0
11/02/2018 23:00 1294.83 227.0 0.02 -- 49.7 100.0
11/02/2018 22:00 1294.82 225.0 0.00 -- 50.0 100.0
11/02/2018 21:00 1294.81 219.0 0.04 -- 50.0 100.0
11/02/2018 20:00 1294.79 219.0 0.00 -- 50.1 100.0
11/02/2018 19:00 1294.78 216.0 0.00 -- 50.5 100.0
11/02/2018 18:00 1294.78 215.0 0.00 -- 51.4 100.0
11/02/2018 17:00 1294.76 214.0 0.00 -- 52.5 100.0
11/02/2018 16:00 1294.76 210.0 0.08 -- 51.7 100.0
11/02/2018 15:00 1294.74 206.0 0.00 -- 51.2 100.0
11/02/2018 14:00 1294.72 207.0 0.00 -- 51.6 100.0
11/02/2018 13:00 1294.85 153.0 0.19 -- 52.8 100.0
11/02/2018 12:00 1294.85 147.0 0.07 -- 49.4 100.0
11/02/2018 11:00 1294.82 140.0 0.00 -- 43.8 100.0
11/02/2018 10:00 1294.80 141.0 0.02 -- 42.8 100.0
11/02/2018 09:00 1294.78 140.0 0.07 -- 42.4 100.0
11/02/2018 08:00 1294.78 137.0 0.01 -- 42.3 100.0
11/02/2018 07:00 1294.77 135.0 0.00 -- 42.4 100.0
11/02/2018 06:00 1294.77 135.0 0.00 -- 42.7 100.0
11/02/2018 05:00 1294.77 135.0 0.12 -- 43.1 100.0
11/02/2018 04:00 1294.76 136.0 0.08 -- 43.2 100.0
11/02/2018 03:00 1294.75 132.0 0.00 -- 43.6 100.0
11/02/2018 02:00 1294.75 131.0 0.00 -- 43.7 100.0
11/02/2018 01:00 1294.76 132.0 0.00 -- 44.0 100.0
11/02/2018 00:00 1294.77 132.0 0.00 1.06 43.6 100.0
11/01/2018 23:00 1294.77 134.0 0.00 -- 43.1 100.0
11/01/2018 22:00 1294.77 135.0 0.00 -- 43.0 100.0
11/01/2018 21:00 1294.78 135.0 0.00 -- 43.1 100.0
11/01/2018 20:00 1294.78 135.0 0.00 -- 43.2 100.0
11/01/2018 19:00 1294.80 136.0 0.00 -- 43.7 100.0
11/01/2018 18:00 1294.80 137.0 0.00 -- 45.1 100.0
11/01/2018 17:00 1294.79 138.0 0.00 -- 45.6 100.0
11/01/2018 16:00 1294.79 138.0 0.00 -- 46.4 100.0
11/01/2018 15:00 1294.80 141.0 0.00 -- 46.4 100.0
11/01/2018 14:00 1294.81 140.0 0.02 -- 48.1 100.0
11/01/2018 13:00 1294.81 142.0 0.00 -- 48.4 100.0
11/01/2018 12:00 1294.81 142.0 0.01 -- 48.3 100.0
11/01/2018 11:00 1294.82 142.0 0.00 -- 47.5 100.0
11/01/2018 10:00 1294.82 143.0 0.00 -- 46.6 100.0
11/01/2018 09:00 1294.83 144.0 0.00 -- 46.1 100.0
11/01/2018 08:00 1294.83 146.0 0.00 -- 46.3 100.0
11/01/2018 07:00 1294.82 146.0 0.00 -- 48.6 99.0
11/01/2018 06:00 1294.85 145.0 0.00 -- 48.2 99.0
11/01/2018 05:00 1294.85 148.0 0.00 -- 48.5 99.0
11/01/2018 04:00 1294.86 149.0 0.00 -- 48.5 96.0
11/01/2018 03:00 1294.87 150.0 0.00 -- 48.8 92.0
11/01/2018 02:00 1294.86 154.0 0.00 -- 48.9 89.0
11/01/2018 01:00 1294.87 154.0 0.00 -- 49.1 85.0
11/01/2018 00:00 1294.87 156.0 0.00 0.03 49.2 83.0
10/31/2018 23:00 1294.88 155.0 0.00 -- 49.2 81.0
10/31/2018 22:00 1294.89 156.0 0.00 -- 48.4 80.0
10/31/2018 21:00 1294.91 159.0 0.00 -- 47.2 79.0
10/31/2018 20:00 1294.93 163.0 0.00 -- 47.2 75.0
10/31/2018 19:00 1294.93 166.0 0.00 -- 46.6 71.0
10/31/2018 18:00 1294.94 163.0 0.00 -- 47.1 70.0
10/31/2018 17:00 1294.95 168.0 0.00 -- 47.9 64.0
10/31/2018 16:00 1294.93 172.0 0.00 -- 47.6 58.0
10/31/2018 15:00 1294.94 173.0 0.00 -- 44.2 59.0
10/31/2018 14:00 1294.95 172.0 0.00 -- 42.7 54.0
10/31/2018 13:00 1294.97 173.0 0.00 -- 40.7 50.0
10/31/2018 12:00 1294.99 177.0 0.00 -- 35.0 78.0
10/31/2018 11:00 1295.00 179.0 0.00 -- 31.3 98.0
10/31/2018 10:00 1295.01 184.0 0.00 -- 28.8 99.0
10/31/2018 09:00 1295.02 185.0 0.00 -- 24.9 99.0
10/31/2018 08:00 1295.03 190.0 0.00 -- 24.6 99.0
10/31/2018 07:00 1295.04 191.0 0.00 -- 25.0 99.0
10/31/2018 06:00 1295.06 195.0 0.00 -- 25.4 99.0
10/31/2018 05:00 1295.06 198.0 0.00 -- 26.0 99.0
10/31/2018 04:00 1295.08 202.0 0.00 -- 27.1 99.0
10/31/2018 03:00 1295.10 206.0 0.00 -- 28.1 99.0
10/31/2018 02:00 1295.10 210.0 0.00 -- 26.5 99.0
10/31/2018 01:00 1295.12 211.0 0.00 -- 26.7 99.0
10/31/2018 00:00 1295.12 215.0 0.00 0.00 28.0 99.0
10/30/2018 23:00 1295.14 220.0 0.00 -- 28.9 99.0
10/30/2018 22:00 1295.15 220.0 0.00 -- 28.3 99.0
10/30/2018 21:00 1295.17 226.0 0.00 -- 28.0 99.0
10/30/2018 20:00 1295.18 232.0 0.00 -- 30.1 92.0
10/30/2018 19:00 1295.19 234.0 0.00 -- 34.7 74.0
10/30/2018 18:00 1295.22 238.0 0.00 -- 36.7 64.0
10/30/2018 17:00 1295.22 242.0 0.00 -- 36.8 66.0
10/30/2018 16:00 1295.26 251.0 0.00 -- 36.0 65.0
10/30/2018 15:00 1295.26 252.0 0.00 -- 35.2 71.0
10/30/2018 14:00 1295.26 262.0 0.00 -- 35.1 69.0
10/30/2018 13:00 1295.29 262.0 0.00 -- 35.7 67.0
10/30/2018 12:00 1295.39 266.0 0.00 -- 35.1 69.0
10/30/2018 11:00 1295.39 138.0 0.01 -- 34.2 74.0
10/30/2018 10:00 1295.39 139.0 0.00 -- 33.9 76.0
10/30/2018 09:00 1295.39 136.0 0.00 -- 32.3 83.0
10/30/2018 08:00 1295.39 137.0 0.00 -- 32.5 83.0
10/30/2018 07:00 1295.38 138.0 0.00 -- 34.1 80.0
10/30/2018 06:00 1295.38 136.0 0.00 -- 34.6 79.0
10/30/2018 05:00 1295.37 136.0 0.00 -- 34.5 86.0
10/30/2018 04:00 1295.37 132.0 0.00 -- 35.4 82.0
10/30/2018 03:00 1295.36 133.0 0.00 -- 36.4 78.0
10/30/2018 02:00 1295.35 129.0 0.00 -- 36.6 83.0
10/30/2018 01:00 1295.34 129.0 0.00 -- 37.2 87.0
10/30/2018 00:00 1295.34 125.0 0.00 0.01 36.6 89.0
10/29/2018 23:00 1295.33 124.0 0.00 -- 37.2 87.0
10/29/2018 22:00 1295.33 122.0 0.00 -- 38.2 84.0
10/29/2018 21:00 1295.32 121.0 0.00 -- 39.2 87.0
10/29/2018 20:00 1295.30 119.0 0.00 -- 40.3 97.0
10/29/2018 19:00 1295.30 114.0 0.00 -- 41.3 99.0
10/29/2018 18:00 1295.29 115.0 0.00 -- 41.8 99.0
10/29/2018 17:00 1295.28 113.0 0.00 -- 41.7 99.0
10/29/2018 16:00 1295.28 111.0 0.00 -- 41.8 100.0
10/29/2018 15:00 1295.27 108.0 0.02 -- 40.3 100.0
10/29/2018 14:00 1295.26 106.0 0.10 -- 39.5 100.0
10/29/2018 13:00 1295.24 103.0 0.12 -- 39.3 100.0
10/29/2018 12:00 1295.24 98.0 0.14 -- 39.3 100.0
10/29/2018 11:00 1295.23 93.0 0.09 -- 39.2 100.0
10/29/2018 10:00 1295.21 95.0 0.01 -- 38.9 100.0
10/29/2018 09:00 1295.20 91.0 0.00 -- 38.4 100.0
10/29/2018 08:00 1295.20 90.0 0.00 -- 38.2 100.0
10/29/2018 07:00 1295.19 89.0 0.00 -- 38.4 100.0
10/29/2018 06:00 1295.19 86.0 0.01 -- 38.6 100.0
10/29/2018 05:00 1295.19 84.0 0.05 -- 37.5 100.0
10/29/2018 04:00 1295.19 86.0 0.00 -- 36.1 100.0
10/29/2018 03:00 1295.19 84.0 0.00 -- 35.5 100.0
10/29/2018 02:00 1295.18 86.0 0.00 -- 35.5 100.0
10/29/2018 01:00 1295.19 85.0 0.00 -- 36.1 100.0
10/29/2018 00:00 1295.18 86.0 0.00 0.54 39.5 99.0
10/28/2018 23:00 1295.17 83.0 0.00 -- 39.9 99.0
10/28/2018 22:00 1295.17 82.0 0.00 -- 39.3 100.0
10/28/2018 21:00 1295.17 81.0 0.00 -- 38.7 100.0
10/28/2018 20:00 1295.16 81.0 0.00 -- 39.1 100.0
10/28/2018 19:00 1295.16 80.0 0.00 -- 39.4 100.0
10/28/2018 18:00 1295.15 79.0 0.00 -- 40.3 99.0
10/28/2018 17:00 1295.15 78.0 0.00 -- 40.1 99.0
10/28/2018 16:00 1295.14 77.0 0.00 -- 39.9 99.0
10/28/2018 15:00 1295.13 74.0 0.00 -- 39.7 95.0
10/28/2018 14:00 1295.12 72.0 0.00 -- 39.2 99.0
10/28/2018 13:00 1295.11 70.0 0.00 -- 38.5 99.0
10/28/2018 12:00 1295.12 68.0 0.00 -- 37.1 100.0
10/28/2018 11:00 1295.12 69.0 0.01 -- 35.4 100.0
10/28/2018 10:00 1295.11 68.0 0.01 -- 34.0 100.0
10/28/2018 09:00 1295.11 68.0 0.00 -- 33.2 100.0
10/28/2018 08:00 1295.11 66.0 0.00 -- 32.8 100.0
10/28/2018 07:00 1295.10 67.0 0.01 -- 32.6 100.0
10/28/2018 06:00 1295.10 66.0 0.01 -- 32.5 100.0
10/28/2018 05:00 1295.09 64.0 0.00 -- 32.2 100.0
10/28/2018 04:00 1295.09 64.0 0.00 -- 32.5 100.0
10/28/2018 03:00 1295.09 62.0 0.00 -- 32.4 99.0
10/28/2018 02:00 1295.11 63.0 0.01 -- 32.7 99.0
10/28/2018 01:00 1295.09 64.0 0.01 -- 32.6 100.0
10/28/2018 00:00 1295.04 67.0 0.01 0.06 32.7 100.0
10/27/2018 23:00 1295.06 60.0 0.01 -- 32.7 100.0
10/27/2018 22:00 1295.09 66.0 0.01 -- 32.7 100.0
10/27/2018 21:00 1295.07 61.0 0.02 -- 32.6 100.0
10/27/2018 20:00 1295.07 60.0 0.07 -- 32.7 100.0
10/27/2018 19:00 1295.08 60.0 0.06 -- 32.7 100.0
10/27/2018 18:00 1295.07 63.0 0.07 -- 32.9 100.0
10/27/2018 17:00 1295.08 57.0 0.10 -- 33.4 100.0
10/27/2018 16:00 1295.06 59.0 0.07 -- 33.0 100.0
10/27/2018 15:00 1295.02 52.0 0.12 -- 32.1 100.0
10/27/2018 14:00 1295.03 52.0 0.13 -- 31.7 99.0
10/27/2018 13:00 1295.02 53.0 0.03 -- 31.5 99.0
10/27/2018 12:00 1294.99 47.0 0.00 -- 30.9 99.0
10/27/2018 11:00 1294.98 47.0 0.00 -- 30.6 99.0
10/27/2018 10:00 1294.98 42.0 0.00 -- 30.3 95.0
10/27/2018 09:00 1294.96 41.0 0.00 -- 30.3 80.0
10/27/2018 08:00 1294.97 40.0 0.00 -- 31.3 70.0
10/27/2018 07:00 1294.97 39.0 0.00 -- 31.8 58.0
10/27/2018 06:00 1294.97 37.0 0.00 -- 31.5 58.0
10/27/2018 05:00 1294.97 39.0 0.00 -- 31.2 61.0
10/27/2018 04:00 1294.96 40.0 0.00 -- 31.2 57.0
10/27/2018 03:00 1294.96 39.0 0.00 -- 31.1 57.0
10/27/2018 02:00 1294.97 36.0 0.00 -- 31.0 65.0
10/27/2018 01:00 1294.97 39.0 0.00 -- 29.9 78.0
10/27/2018 00:00 1294.96 37.0 0.00 0.70 30.1 77.0
10/26/2018 23:00 1294.96 38.0 0.00 -- 29.7 78.0
10/26/2018 22:00 1294.96 38.0 0.00 -- 29.5 75.0
10/26/2018 21:00 1294.96 37.0 0.00 -- 28.7 74.0
10/26/2018 20:00 1294.96 37.0 0.00 -- 28.7 73.0
10/26/2018 19:00 1294.97 38.0 0.00 -- 32.0 60.0
10/26/2018 18:00 1294.96 39.0 0.00 -- 35.8 46.0
10/26/2018 17:00 1294.96 39.0 0.00 -- 38.4 30.0
10/26/2018 16:00 1294.97 38.0 0.00 -- 39.0 32.0
10/26/2018 15:00 1294.97 41.0 0.00 -- 37.8 35.0
10/26/2018 14:00 1294.98 40.0 0.00 -- 35.5 40.0
10/26/2018 13:00 1294.97 35.0 0.00 -- 32.2 47.0
10/26/2018 12:00 1294.98 38.0 0.00 -- 30.1 51.0
10/26/2018 11:00 1294.97 40.0 0.00 -- 28.8 55.0
10/26/2018 10:00 1294.97 42.0 0.00 -- 27.1 60.0
10/26/2018 09:00 1294.97 38.0 0.00 -- 26.2 64.0
10/26/2018 08:00 1294.97 42.0 0.00 -- 26.0 67.0
10/26/2018 07:00 1294.97 39.0 0.00 -- 26.5 69.0
10/26/2018 06:00 1294.97 40.0 0.00 -- 27.4 67.0
10/26/2018 05:00 1294.97 39.0 0.00 -- 27.6 69.0
10/26/2018 04:00 1294.97 39.0 0.00 -- 28.0 69.0
10/26/2018 03:00 1294.97 39.0 0.00 -- 27.8 63.0
10/26/2018 02:00 1294.97 39.0 0.00 -- 28.5 61.0
10/26/2018 01:00 1294.97 39.0 0.00 -- 28.8 61.0
10/26/2018 00:00 1294.97 41.0 0.00 0.00 28.9 57.0
10/25/2018 23:00 1294.98 42.0 0.00 -- 28.9 61.0
10/25/2018 22:00 1294.98 39.0 0.00 -- 29.6 75.0
10/25/2018 21:00 1294.97 41.0 0.00 -- 30.2 72.0
10/25/2018 20:00 1294.98 40.0 0.00 -- 31.0 66.0
10/25/2018 19:00 1294.97 42.0 0.00 -- 31.6 62.0
10/25/2018 18:00 1294.97 40.0 0.00 -- 32.8 58.0
10/25/2018 17:00 1294.97 37.0 0.00 -- 34.2 56.0
10/25/2018 16:00 1294.97 40.0 0.00 -- 34.0 58.0
10/25/2018 15:00 1294.99 38.0 0.00 -- 33.7 63.0
10/25/2018 14:00 1294.96 41.0 0.00 -- 33.4 63.0
10/25/2018 13:00 1294.97 39.0 0.00 -- 33.9 64.0
10/25/2018 12:00 1294.98 37.0 0.00 -- 34.2 66.0
10/25/2018 11:00 1294.97 38.0 0.00 -- 33.4 64.0
10/25/2018 10:00 1294.98 40.0 0.00 -- 32.7 72.0
10/25/2018 09:00 1294.97 39.0 0.00 -- 31.3 86.0
10/25/2018 08:00 1294.97 39.0 0.00 -- 32.3 83.0
10/25/2018 07:00 1294.97 39.0 0.00 -- 32.9 88.0
10/25/2018 06:00 1294.97 39.0 0.00 -- 33.1 91.0
10/25/2018 05:00 1294.96 40.0 0.00 -- 33.1 91.0
10/25/2018 04:00 1294.97 38.0 0.00 -- 33.2 89.0
10/25/2018 03:00 1294.98 40.0 0.00 -- 33.3 88.0
10/25/2018 02:00 1294.96 39.0 0.00 -- 28.8 99.0
10/25/2018 01:00 1294.96 38.0 0.00 -- 28.0 99.0
10/25/2018 00:00 1294.97 37.0 0.00 0.00 29.6 99.0
10/24/2018 23:00 1294.96 39.0 0.00 -- 32.1 91.0
10/24/2018 22:00 1294.97 38.0 0.00 -- 33.0 86.0
10/24/2018 21:00 1294.99 39.0 0.00 -- 34.8 80.0
10/24/2018 20:00 1294.97 43.0 0.00 -- 35.7 84.0
10/24/2018 19:00 1294.95 40.0 0.00 -- 36.6 88.0
10/24/2018 18:00 1294.98 39.0 0.00 -- 38.2 79.0
10/24/2018 17:00 1294.96 41.0 0.01 -- 38.2 81.0
10/24/2018 16:00 1294.97 37.0 0.00 -- 38.2 86.0
10/24/2018 15:00 1294.97 39.0 0.00 -- 37.7 90.0
10/24/2018 14:00 1294.97 41.0 0.00 -- 36.8 97.0
10/24/2018 13:00 1294.97 41.0 0.01 -- 35.2 99.0
10/24/2018 12:00 1294.95 40.0 0.00 -- 36.2 99.0
10/24/2018 11:00 1294.97 39.0 0.01 -- 36.5 99.0
10/24/2018 10:00 1294.96 40.0 0.02 -- 35.7 99.0
10/24/2018 09:00 1294.95 38.0 0.00 -- 36.1 99.0
10/24/2018 08:00 1294.94 37.0 0.00 -- 36.1 99.0
10/24/2018 07:00 1294.95 35.0 0.00 -- 36.4 99.0
10/24/2018 06:00 1294.94 35.0 0.00 -- 36.5 99.0
10/24/2018 05:00 1294.95 35.0 0.00 -- 36.6 99.0
10/24/2018 04:00 1294.94 34.0 0.01 -- 37.5 100.0
10/24/2018 03:00 1294.94 34.0 0.01 -- 37.0 100.0
10/24/2018 02:00 1294.94 34.0 0.00 -- 37.2 100.0
10/24/2018 01:00 1294.93 34.0 0.02 -- 37.6 100.0
10/24/2018 00:00 1294.93 32.0 0.00 0.09 37.9 100.0
10/23/2018 23:00 1294.92 33.0 0.01 -- 38.1 100.0
10/23/2018 22:00 1294.93 32.0 0.08 -- 37.6 100.0
10/23/2018 21:00 1294.92 29.0 0.00 -- 37.2 100.0
10/23/2018 20:00 1294.92 31.0 0.00 -- 37.3 100.0
10/23/2018 19:00 1294.92 30.0 0.00 -- 39.1 100.0
10/23/2018 18:00 1294.92 30.0 0.09 -- 40.0 100.0
10/23/2018 17:00 1294.96 28.0 0.18 -- 38.9 99.0
10/23/2018 16:00 1294.89 28.0 0.04 -- 41.4 99.0
10/23/2018 15:00 1294.89 25.0 0.00 -- 41.2 91.0
10/23/2018 14:00 1294.88 26.0 0.00 -- 41.1 87.0
10/23/2018 13:00 1294.88 25.0 0.00 -- 42.8 70.0
10/23/2018 12:00 1294.88 23.0 0.00 -- 43.0 69.0
10/23/2018 11:00 1294.87 24.0 0.00 -- 40.1 73.0
10/23/2018 10:00 1294.87 24.0 0.00 -- 36.8 84.0
10/23/2018 09:00 1294.87 23.0 0.00 -- 34.3 92.0
10/23/2018 08:00 1294.87 24.0 0.00 -- 34.3 91.0
10/23/2018 07:00 1294.88 23.0 0.00 -- 34.9 87.0
10/23/2018 06:00 1294.87 23.0 0.00 -- 34.9 85.0
10/23/2018 05:00 1294.87 23.0 0.00 -- 35.4 81.0
10/23/2018 04:00 1294.86 23.0 0.00 -- 35.5 81.0
10/23/2018 03:00 1294.87 22.0 0.00 -- 36.4 76.0
10/23/2018 02:00 1294.87 22.0 0.00 -- 37.4 71.0
10/23/2018 01:00 1294.86 22.0 0.00 -- 37.7 69.0
10/23/2018 00:00 1294.86 21.0 0.00 0.40 38.1 67.0
10/22/2018 23:00 1294.85 20.0 0.00 -- 38.3 66.0
10/22/2018 22:00 1294.86 21.0 0.00 -- 36.4 75.0
10/22/2018 21:00 1294.86 22.0 0.00 -- 36.9 70.0
10/22/2018 20:00 1294.87 21.0 0.00 -- 37.6 68.0
10/22/2018 19:00 1294.87 22.0 0.00 -- 38.7 63.0
10/22/2018 18:00 1294.85 23.0 0.00 -- 40.4 54.0
10/22/2018 17:00 1294.86 22.0 0.00 -- 41.1 46.0
10/22/2018 16:00 1294.86 20.0 0.00 -- 41.6 44.0
10/22/2018 15:00 1294.86 19.0 0.00 -- 41.1 44.0
10/22/2018 14:00 1294.86 18.0 0.00 -- 39.1 50.0
10/22/2018 13:00 1294.85 21.0 0.00 -- 38.4 47.0
10/22/2018 12:00 1294.84 22.0 0.00 -- 35.3 51.0
10/22/2018 11:00 1294.86 19.0 0.00 -- 33.8 52.0
10/22/2018 10:00 1294.85 20.0 0.00 -- 30.5 55.0
10/22/2018 09:00 1294.85 19.0 0.00 -- 24.4 73.0
10/22/2018 08:00 1294.86 20.0 0.00 -- 24.2 71.0
10/22/2018 07:00 1294.85 20.0 0.00 -- 26.0 66.0
10/22/2018 06:00 1294.85 20.0 0.00 -- 27.8 62.0
10/22/2018 05:00 1294.85 20.0 0.00 -- 28.0 60.0
10/22/2018 04:00 1294.85 20.0 0.00 -- 28.4 57.0
10/22/2018 03:00 1294.85 20.0 0.00 -- 27.6 63.0
10/22/2018 02:00 1294.85 20.0 0.00 -- 29.4 58.0
10/22/2018 01:00 1294.86 20.0 0.00 -- 30.1 55.0
10/22/2018 00:00 1294.86 19.0 0.00 0.00 30.6 55.0
10/21/2018 23:00 1294.85 18.0 0.00 -- 30.7 53.0
10/21/2018 22:00 1294.86 22.0 0.00 -- 31.5 57.0
10/21/2018 21:00 1294.85 19.0 0.00 -- 31.1 57.0
10/21/2018 20:00 1294.85 20.0 0.00 -- 31.3 53.0
10/21/2018 19:00 1294.84 20.0 0.00 -- 32.7 49.0
10/21/2018 18:00 1294.86 20.0 0.00 -- 34.1 47.0
10/21/2018 17:00 1294.86 22.0 0.00 -- 34.6 48.0
10/21/2018 16:00 1294.87 23.0 0.00 -- 34.0 51.0
10/21/2018 15:00 1294.86 20.0 0.00 -- 34.1 54.0
10/21/2018 14:00 1294.86 22.0 0.00 -- 34.8 54.0
10/21/2018 13:00 1294.85 23.0 0.00 -- 34.4 55.0
10/21/2018 12:00 1294.84 21.0 0.00 -- 34.1 59.0
10/21/2018 11:00 1294.85 21.0 0.00 -- 34.2 67.0
10/21/2018 10:00 1294.84 20.0 0.00 -- 34.3 66.0
10/21/2018 09:00 1294.86 19.0 0.00 -- 35.8 66.0
10/21/2018 08:00 1294.83 19.0 0.00 -- 37.2 68.0
10/21/2018 07:00 1294.86 18.0 0.00 -- 38.5 63.0
10/21/2018 06:00 1294.84 19.0 0.00 -- 39.5 63.0
10/21/2018 05:00 1294.83 20.0 0.00 -- 39.9 68.0
10/21/2018 04:00 1294.83 17.0 0.00 -- 39.4 80.0
10/21/2018 03:00 1294.81 17.0 0.00 -- 36.2 97.0
10/21/2018 02:00 1294.81 14.0 0.00 -- 35.4 99.0
10/21/2018 01:00 1294.81 13.0 0.00 -- 34.9 98.0
10/21/2018 00:00 1294.82 13.0 0.00 0.00 36.1 92.0
10/20/2018 23:00 1294.79 15.0 0.00 -- 36.1 90.0
10/20/2018 22:00 1294.80 14.0 0.00 -- 38.3 84.0
10/20/2018 21:00 1294.80 13.0 0.00 -- 41.6 75.0
10/20/2018 20:00 1294.79 12.0 0.00 -- 47.8 54.0
10/20/2018 19:00 1294.79 12.0 0.00 -- 50.8 50.0
10/20/2018 18:00 1294.78 12.0 0.00 -- 53.2 44.0
10/20/2018 17:00 1294.79 10.0 0.00 -- 54.7 43.0
10/20/2018 16:00 1294.78 11.0 0.00 -- 56.2 44.0
10/20/2018 15:00 1294.72 9.0 0.00 -- 55.0 46.0
10/20/2018 14:00 1294.75 3.0 0.00 -- 51.3 64.0
10/20/2018 13:00 1294.75 6.0 0.00 -- 49.9 74.0
10/20/2018 12:00 1294.73 8.0 0.00 -- 50.1 77.0
10/20/2018 11:00 1294.70 4.0 0.00 -- 48.6 82.0
10/20/2018 10:00 1294.69 88.0 0.00 -- 47.6 85.0
10/20/2018 09:00 1294.70 89.0 0.00 -- 46.4 85.0
10/20/2018 08:00 1294.69 90.0 0.00 -- 46.6 77.0
10/20/2018 07:00 1294.70 87.0 0.00 -- 46.7 75.0
10/20/2018 06:00 1294.73 90.0 0.00 -- 46.2 77.0
10/20/2018 05:00 1294.72 89.0 0.00 -- 45.9 74.0
10/20/2018 04:00 1294.72 80.0 0.00 -- 45.3 71.0
10/20/2018 03:00 1294.72 92.0 0.00 -- 45.4 68.0
10/20/2018 02:00 1294.73 80.0 0.00 -- 45.8 61.0
10/20/2018 01:00 1294.73 80.0 0.00 -- 45.8 56.0
10/20/2018 00:00 1294.74 80.0 0.00 0.00 45.9 60.0
10/19/2018 23:00 1294.74 80.0 0.00 -- 46.7 61.0
10/19/2018 22:00 1294.75 80.0 0.00 -- 48.0 59.0
10/19/2018 21:00 1294.75 80.0 0.00 -- 48.3 60.0
10/19/2018 20:00 1294.76 80.0 0.00 -- 48.6 54.0
10/19/2018 19:00 1294.76 80.0 0.00 -- 51.4 50.0
10/19/2018 18:00 1294.77 80.0 0.00 -- 54.2 45.0
10/19/2018 17:00 1294.78 80.0 0.00 -- 54.2 45.0
10/19/2018 16:00 1294.77 101.0 0.00 -- 52.9 47.0
10/19/2018 15:00 1294.79 98.0 0.00 -- 51.6 49.0
10/19/2018 14:00 1294.77 102.0 0.00 -- 48.8 53.0
10/19/2018 13:00 1294.79 104.0 0.00 -- 43.8 60.0
10/19/2018 12:00 1294.81 103.0 0.00 -- 40.0 65.0
10/19/2018 11:00 1294.82 104.0 0.00 -- 37.1 71.0
10/19/2018 10:00 1294.83 106.0 0.00 -- 32.5 81.0
10/19/2018 09:00 1294.84 110.0 0.00 -- 28.2 90.0
10/19/2018 08:00 1294.84 111.0 0.00 -- 30.2 79.0
10/19/2018 07:00 1294.84 109.0 0.00 -- 30.3 79.0
10/19/2018 06:00 1294.85 110.0 0.00 -- 29.6 81.0
10/19/2018 05:00 1294.86 113.0 0.00 -- 27.4 82.0
10/19/2018 04:00 1294.88 116.0 0.00 -- 26.4 81.0
10/19/2018 03:00 1294.89 119.0 0.00 -- 26.8 79.0
10/19/2018 02:00 1294.89 122.0 0.00 -- 27.4 73.0
10/19/2018 01:00 1294.90 123.0 0.00 -- 27.7 72.0
10/19/2018 00:00 1294.90 124.0 0.00 0.00 31.1 59.0
10/18/2018 23:00 1294.91 125.0 0.00 -- 30.8 51.0
10/18/2018 22:00 1294.92 126.0 0.00 -- 30.3 53.0
10/18/2018 21:00 1294.94 129.0 0.00 -- 27.7 64.0
10/18/2018 20:00 1294.95 132.0 0.00 -- 33.0 46.0
10/18/2018 19:00 1294.96 134.0 0.00 -- 34.6 41.0
10/18/2018 18:00 1294.97 138.0 0.00 -- 36.1 39.0
10/18/2018 17:00 1294.99 138.0 0.00 -- 36.5 36.0
10/18/2018 16:00 1294.98 141.0 0.00 -- 36.9 37.0
10/18/2018 15:00 1294.99 145.0 0.00 -- 36.1 38.0
10/18/2018 14:00 1295.01 147.0 0.00 -- 34.2 40.0
10/18/2018 13:00 1295.02 148.0 0.00 -- 32.2 46.0
10/18/2018 12:00 1295.05 155.0 0.00 -- 31.4 55.0
10/18/2018 11:00 1295.05 154.0 0.00 -- 30.4 54.0
10/18/2018 10:00 1295.09 160.0 0.00 -- 29.4 63.0
10/18/2018 09:00 1295.10 72.0 0.00 -- 28.5 62.0
10/18/2018 08:00 1295.12 70.0 0.00 -- 28.3 66.0
10/18/2018 07:00 1295.11 71.0 0.00 -- 28.4 68.0
10/18/2018 06:00 1295.12 69.0 0.00 -- 29.0 72.0
10/18/2018 05:00 1295.11 74.0 0.00 -- 30.1 80.0
10/18/2018 04:00 1295.10 70.0 0.00 -- 30.0 86.0
10/18/2018 03:00 1295.11 70.0 0.00 -- 30.8 85.0
10/18/2018 02:00 1295.11 70.0 0.00 -- 31.2 91.0
10/18/2018 01:00 1295.11 70.0 0.00 -- 33.8 79.0
10/18/2018 00:00 1295.10 71.0 0.00 0.00 35.9 69.0
10/17/2018 23:00 1295.11 68.0 0.00 -- 36.3 81.0
10/17/2018 22:00 1295.11 69.0 0.00 -- 37.2 78.0
10/17/2018 21:00 1295.11 73.0 0.01 -- 38.3 80.0
10/17/2018 20:00 1295.12 75.0 0.00 -- 38.5 97.0
10/17/2018 19:00 1295.13 70.0 0.00 -- 40.2 96.0
10/17/2018 18:00 1295.10 71.0 0.00 -- 40.3 98.0
10/17/2018 17:00 1295.12 67.0 0.05 -- 40.2 96.0
10/17/2018 16:00 1295.14 69.0 0.00 -- 43.6 80.0
10/17/2018 15:00 1295.08 79.0 0.00 -- 48.4 52.0
10/17/2018 14:00 1295.11 66.0 0.00 -- 48.3 56.0
10/17/2018 13:00 1295.09 71.0 0.00 -- 46.8 60.0
10/17/2018 12:00 1295.07 69.0 0.00 -- 43.0 66.0
10/17/2018 11:00 1295.10 63.0 0.00 -- 39.7 76.0
10/17/2018 10:00 1295.09 67.0 0.00 -- 37.5 81.0
10/17/2018 09:00 1295.10 67.0 0.00 -- 36.6 85.0
10/17/2018 08:00 1295.10 69.0 0.00 -- 36.0 86.0
10/17/2018 07:00 1295.10 67.0 0.00 -- 35.4 90.0
10/17/2018 06:00 1295.11 69.0 0.00 -- 34.5 94.0
10/17/2018 05:00 1295.11 67.0 0.00 -- 29.8 99.0
10/17/2018 04:00 1295.12 72.0 0.00 -- 29.9 99.0
10/17/2018 03:00 1295.12 71.0 0.00 -- 30.6 99.0
10/17/2018 02:00 1295.12 72.0 0.00 -- 31.0 99.0
10/17/2018 01:00 1295.12 73.0 0.00 -- 32.0 96.0
10/17/2018 00:00 1295.12 73.0 0.00 0.06 33.1 94.0
10/16/2018 23:00 1295.12 73.0 0.00 -- 33.3 92.0
10/16/2018 22:00 1295.12 71.0 0.00 -- 34.7 86.0
10/16/2018 21:00 1295.13 73.0 0.00 -- 37.2 76.0
10/16/2018 20:00 1295.12 75.0 0.00 -- 41.4 62.0
10/16/2018 19:00 1295.12 72.0 0.00 -- 43.7 54.0
10/16/2018 18:00 1295.12 74.0 0.00 -- 46.2 50.0
10/16/2018 17:00 1295.10 73.0 0.00 -- 47.2 46.0
10/16/2018 16:00 1295.11 75.0 0.00 -- 48.9 43.0
10/16/2018 15:00 1295.10 69.0 0.00 -- 48.2 42.0
10/16/2018 14:00 1295.10 68.0 0.00 -- 45.7 45.0
10/16/2018 13:00 1295.14 70.0 0.00 -- 44.3 50.0
10/16/2018 12:00 1295.12 74.0 0.00 -- 42.6 51.0
10/16/2018 11:00 1295.15 80.0 0.00 -- 41.1 54.0
10/16/2018 10:00 1295.13 76.0 0.00 -- 39.5 64.0
10/16/2018 09:00 1295.12 76.0 0.00 -- 36.7 64.0
10/16/2018 08:00 1295.14 75.0 0.00 -- 35.8 64.0
10/16/2018 07:00 1295.14 78.0 0.00 -- 36.5 62.0
10/16/2018 06:00 1295.13 75.0 0.00 -- 37.7 56.0
10/16/2018 05:00 1295.13 81.0 0.00 -- 40.0 49.0
10/16/2018 04:00 1295.12 78.0 0.00 -- 43.0 53.0
10/16/2018 03:00 1295.13 71.0 0.00 -- 46.0 60.0
10/16/2018 02:00 1295.12 70.0 0.00 -- 48.4 79.0
10/16/2018 01:00 1295.13 73.0 0.08 -- 49.6 99.0
10/16/2018 00:00 1295.13 76.0 0.09 0.08 52.4 100.0
10/15/2018 23:00 1295.09 76.0 0.00 -- 56.5 100.0
10/15/2018 22:00 1295.09 63.0 0.04 -- 56.2 100.0
10/15/2018 21:00 1295.09 64.0 0.05 -- 55.6 100.0
10/15/2018 20:00 1295.06 63.0 0.00 -- 54.7 100.0
10/15/2018 19:00 1295.07 62.0 0.01 -- 53.8 100.0
10/15/2018 18:00 1295.08 62.0 0.00 -- 52.7 100.0
10/15/2018 17:00 1295.08 64.0 0.00 -- 51.7 100.0
10/15/2018 16:00 1295.07 64.0 0.01 -- 51.6 100.0
10/15/2018 15:00 1295.07 64.0 0.03 -- 50.4 100.0
10/15/2018 14:00 1295.07 61.0 0.04 -- 49.1 100.0
10/15/2018 13:00 1295.08 60.0 0.03 -- 47.8 100.0
10/15/2018 12:00 1295.06 64.0 0.04 -- 46.4 100.0
10/15/2018 11:00 1295.07 60.0 0.00 -- 43.5 100.0
10/15/2018 10:00 1295.08 118.0 0.00 -- 38.0 100.0
10/15/2018 09:00 1295.08 122.0 0.00 -- 34.7 100.0
10/15/2018 08:00 1295.08 120.0 0.00 -- 31.4 99.0
10/15/2018 07:00 1295.08 121.0 0.00 -- 31.2 99.0
10/15/2018 06:00 1295.08 122.0 0.00 -- 31.4 99.0
10/15/2018 05:00 1295.08 121.0 0.00 -- 31.7 99.0
10/15/2018 04:00 1295.08 121.0 0.00 -- 32.4 99.0
10/15/2018 03:00 1295.08 120.0 0.00 -- 32.6 99.0
10/15/2018 02:00 1295.08 119.0 0.00 -- 33.1 99.0
10/15/2018 01:00 1295.07 120.0 0.00 -- 33.7 99.0
10/15/2018 00:00 1295.07 119.0 0.00 0.34 34.7 99.0
10/14/2018 23:00 1295.08 118.0 0.00 -- 34.8 99.0
10/14/2018 22:00 1295.07 117.0 0.00 -- 36.5 99.0
10/14/2018 21:00 1295.08 120.0 0.00 -- 37.8 99.0
10/14/2018 20:00 1295.07 118.0 0.00 -- 41.3 91.0
10/14/2018 19:00 1295.08 119.0 0.00 -- 47.6 69.0
10/14/2018 18:00 1295.07 118.0 0.00 -- 50.8 49.0
10/14/2018 17:00 1295.06 118.0 0.01 -- 51.4 48.0
10/14/2018 16:00 1295.02 119.0 0.00 -- 51.4 47.0
10/14/2018 15:00 1295.04 154.0 0.00 -- 50.1 47.0
10/14/2018 14:00 1295.05 156.0 0.00 -- 47.8 51.0
10/14/2018 13:00 1295.04 153.0 0.00 -- 45.4 54.0
10/14/2018 12:00 1295.04 156.0 0.00 -- 43.4 62.0
10/14/2018 11:00 1295.05 160.0 0.00 -- 41.9 69.0
10/14/2018 10:00 1295.05 162.0 0.00 -- 37.4 94.0
10/14/2018 09:00 1295.06 162.0 0.00 -- 33.1 100.0
10/14/2018 08:00 1295.07 165.0 0.00 -- 29.9 99.0
10/14/2018 07:00 1295.09 166.0 0.00 -- 29.9 99.0
10/14/2018 06:00 1295.10 170.0 0.00 -- 30.3 99.0
10/14/2018 05:00 1295.11 173.0 0.00 -- 30.9 99.0
10/14/2018 04:00 1295.12 175.0 0.00 -- 31.1 99.0
10/14/2018 03:00 1295.12 179.0 0.00 -- 31.8 99.0
10/14/2018 02:00 1295.13 182.0 0.00 -- 34.0 99.0
10/14/2018 01:00 1295.14 182.0 0.00 -- 33.9 99.0
10/14/2018 00:00 1295.16 185.0 0.00 0.01 36.1 99.0
10/13/2018 23:00 1295.16 187.0 0.00 -- 39.0 99.0
10/13/2018 22:00 1295.17 193.0 0.00 -- 39.8 99.0
10/13/2018 21:00 1295.18 195.0 0.00 -- 39.5 97.0
10/13/2018 20:00 1295.19 197.0 0.00 -- 41.3 87.0
10/13/2018 19:00 1295.21 202.0 0.00 -- 42.3 80.0
10/13/2018 18:00 1295.22 204.0 0.00 -- 43.3 74.0
10/13/2018 17:00 1295.22 206.0 0.00 -- 43.0 73.0
10/13/2018 16:00 1295.24 210.0 0.00 -- 43.2 74.0
10/13/2018 15:00 1295.25 212.0 0.00 -- 42.5 80.0
10/13/2018 14:00 1295.24 215.0 0.01 -- 40.6 99.0
10/13/2018 13:00 1295.26 217.0 0.01 -- 39.5 99.0
10/13/2018 12:00 1295.26 222.0 0.01 -- 38.1 99.0
10/13/2018 11:00 1295.28 224.0 0.02 -- 38.8 99.0
10/13/2018 10:00 1295.28 225.0 0.02 -- 39.4 96.0
10/13/2018 09:00 1295.29 229.0 0.00 -- 39.7 98.0
10/13/2018 08:00 1295.30 230.0 0.00 -- 39.3 99.0
10/13/2018 07:00 1295.32 233.0 0.00 -- 39.4 99.0
10/13/2018 06:00 1295.33 237.0 0.00 -- 39.1 96.0
10/13/2018 05:00 1295.34 242.0 0.00 -- 39.4 95.0
10/13/2018 04:00 1295.35 245.0 0.00 -- 39.5 92.0
10/13/2018 03:00 1295.36 249.0 0.00 -- 41.2 84.0
10/13/2018 02:00 1295.37 252.0 0.00 -- 40.8 88.0
10/13/2018 01:00 1295.38 256.0 0.00 -- 40.6 88.0
10/13/2018 00:00 1295.39 258.0 0.00 0.07 42.7 81.0
10/12/2018 23:00 1295.39 262.0 0.00 -- 42.5 85.0
10/12/2018 22:00 1295.41 266.0 0.00 -- 43.1 73.0
10/12/2018 21:00 1295.42 268.0 0.00 -- 45.3 66.0
10/12/2018 20:00 1295.42 271.0 0.00 -- 46.4 65.0
10/12/2018 19:00 1295.44 277.0 0.00 -- 48.8 59.0
10/12/2018 18:00 1295.45 282.0 0.00 -- 51.2 55.0
10/12/2018 17:00 1295.46 285.0 0.00 -- 51.7 55.0
10/12/2018 16:00 1295.47 296.0 0.00 -- 53.3 57.0
10/12/2018 15:00 1295.50 286.0 0.00 -- 52.0 62.0
10/12/2018 14:00 1295.46 293.0 0.00 -- 49.3 77.0
10/12/2018 13:00 1295.48 291.0 0.00 -- 50.4 70.0
10/12/2018 12:00 1295.48 293.0 0.00 -- 49.5 83.0
10/12/2018 11:00 1295.50 296.0 0.00 -- 50.1 89.0
10/12/2018 10:00 1295.55 299.0 0.00 -- 51.0 87.0
10/12/2018 09:00 1295.55 201.0 0.00 -- 51.9 90.0
10/12/2018 08:00 1295.53 195.0 0.00 -- 52.8 99.0
10/12/2018 07:00 1295.51 190.0 0.00 -- 51.9 100.0
10/12/2018 06:00 1295.50 184.0 0.00 -- 53.4 99.0
10/12/2018 05:00 1295.49 187.0 0.00 -- 54.3 100.0
10/12/2018 04:00 1295.49 179.0 0.00 -- 56.5 100.0
10/12/2018 03:00 1295.48 175.0 0.00 -- 58.2 100.0
10/12/2018 02:00 1295.45 171.0 0.00 -- 56.2 100.0
10/12/2018 01:00 1295.43 165.0 0.01 -- 56.3 100.0
10/12/2018 00:00 1295.41 160.0 0.00 0.01 53.7 100.0
10/11/2018 23:00 1295.41 152.0 0.00 -- 52.5 100.0
10/11/2018 22:00 1295.38 148.0 0.00 -- 52.1 100.0
10/11/2018 21:00 1295.36 145.0 0.01 -- 52.0 100.0
10/11/2018 20:00 1295.34 138.0 0.00 -- 51.6 100.0
10/11/2018 19:00 1295.32 130.0 0.00 -- 51.6 100.0
10/11/2018 18:00 1295.30 125.0 0.05 -- 52.2 100.0
10/11/2018 17:00 1295.26 122.0 0.03 -- 53.1 100.0
10/11/2018 16:00 1295.25 108.0 0.08 -- 53.3 100.0
10/11/2018 15:00 1295.21 103.0 0.05 -- 53.2 100.0
10/11/2018 14:00 1295.17 92.0 0.08 -- 53.0 100.0
10/11/2018 13:00 1295.15 84.0 0.08 -- 53.1 100.0
10/11/2018 12:00 1295.12 76.0 0.17 -- 53.0 100.0
10/11/2018 11:00 1295.08 70.0 0.26 -- 53.1 100.0
10/11/2018 10:00 1295.04 66.0 0.47 -- 54.2 100.0
10/11/2018 09:00 1295.01 58.0 0.31 -- 56.0 100.0
10/11/2018 08:00 1295.01 46.0 0.27 -- 59.0 100.0
10/11/2018 07:00 1294.93 1.0 0.03 -- 63.9 100.0
10/11/2018 06:00 1294.93 33.0 0.00 -- 64.5 100.0
10/11/2018 05:00 1294.92 32.0 0.00 -- 65.3 100.0
10/11/2018 04:00 1294.92 32.0 0.00 -- 65.5 100.0
10/11/2018 03:00 1294.92 31.0 0.00 -- 65.1 100.0
10/11/2018 02:00 1294.92 1.0 0.00 -- 65.6 100.0
10/11/2018 01:00 1294.90 30.0 0.00 -- 63.9 100.0
10/11/2018 00:00 1294.93 30.0 0.00 1.89 61.2 100.0
10/10/2018 23:00 1294.93 32.0 0.00 -- 61.7 100.0
10/10/2018 22:00 1294.93 1.0 0.00 -- 62.6 100.0
10/10/2018 21:00 1294.94 34.0 0.00 -- 63.3 100.0
10/10/2018 20:00 1294.94 34.0 0.00 -- 65.3 100.0
10/10/2018 19:00 1294.95 34.0 0.00 -- 68.6 92.0
10/10/2018 18:00 1294.93 36.0 0.00 -- 74.3 67.0
10/10/2018 17:00 1294.93 34.0 0.00 -- 75.3 65.0
10/10/2018 16:00 1294.97 34.0 0.00 -- 76.5 63.0
10/10/2018 15:00 1294.94 33.0 0.00 -- 75.7 61.0
10/10/2018 14:00 1294.95 28.0 0.00 -- 74.2 64.0
10/10/2018 13:00 1294.93 30.0 0.00 -- 72.4 68.0
10/10/2018 12:00 1294.93 33.0 0.00 -- 70.7 72.0
10/10/2018 11:00 1294.93 33.0 0.00 -- 68.5 84.0
10/10/2018 10:00 1294.93 33.0 0.00 -- 65.6 99.0
10/10/2018 09:00 1294.93 32.0 0.00 -- 62.7 100.0
10/10/2018 08:00 1294.93 34.0 0.00 -- 62.3 100.0
10/10/2018 07:00 1294.93 32.0 0.00 -- 62.5 100.0
10/10/2018 06:00 1294.94 33.0 0.00 -- 62.5 100.0
10/10/2018 05:00 1294.94 34.0 0.00 -- 62.4 100.0
10/10/2018 04:00 1294.94 35.0 0.00 -- 62.7 100.0
10/10/2018 03:00 1294.93 35.0 0.00 -- 62.9 100.0
10/10/2018 02:00 1294.93 33.0 0.00 -- 63.3 100.0
10/10/2018 01:00 1294.94 35.0 0.00 -- 64.0 100.0
10/10/2018 00:00 1294.94 36.0 0.00 0.00 64.4 100.0
10/09/2018 23:00 1294.94 34.0 0.00 -- 64.5 100.0
10/09/2018 22:00 1294.94 36.0 0.00 -- 64.4 100.0
10/09/2018 21:00 1294.95 34.0 0.00 -- 64.3 100.0
10/09/2018 20:00 1294.95 38.0 0.00 -- 65.5 100.0
10/09/2018 19:00 1294.96 36.0 0.00 -- 68.2 99.0
10/09/2018 18:00 1294.94 36.0 0.00 -- 70.7 86.0
10/09/2018 17:00 1294.95 36.0 0.00 -- 72.9 78.0
10/09/2018 16:00 1294.95 39.0 0.00 -- 72.4 78.0
10/09/2018 15:00 1294.93 37.0 0.00 -- 71.9 78.0
10/09/2018 14:00 1294.93 40.0 0.00 -- 68.2 89.0
10/09/2018 13:00 1294.93 34.0 0.00 -- 65.0 100.0
10/09/2018 12:00 1294.94 34.0 0.00 -- 61.0 100.0
10/09/2018 11:00 1294.92 36.0 0.00 -- 59.5 100.0
10/09/2018 10:00 1294.92 34.0 0.00 -- 58.5 100.0
10/09/2018 09:00 1294.93 33.0 0.00 -- 57.0 100.0
10/09/2018 08:00 1294.92 31.0 0.00 -- 56.1 100.0
10/09/2018 07:00 1294.92 31.0 0.00 -- 55.1 100.0
10/09/2018 06:00 1294.92 31.0 0.00 -- 54.3 100.0
10/09/2018 05:00 1294.91 32.0 0.00 -- 53.4 100.0
10/09/2018 04:00 1294.93 30.0 0.01 -- 52.6 100.0
10/09/2018 03:00 1294.94 32.0 0.00 -- 51.3 100.0
10/09/2018 02:00 1294.95 1.0 0.00 -- 51.0 100.0
10/09/2018 01:00 1294.95 35.0 0.00 -- 50.7 100.0
10/09/2018 00:00 1294.95 36.0 0.00 0.01 49.9 100.0
10/08/2018 23:00 1294.95 38.0 0.00 -- 49.1 100.0
10/08/2018 22:00 1294.96 38.0 0.00 -- 48.0 100.0
10/08/2018 21:00 1294.96 38.0 0.00 -- 47.5 100.0
10/08/2018 20:00 1294.96 39.0 0.00 -- 47.2 100.0
10/08/2018 19:00 1294.97 38.0 0.00 -- 47.2 100.0
10/08/2018 18:00 1294.97 39.0 0.00 -- 47.2 100.0
10/08/2018 17:00 1294.97 40.0 0.00 -- 46.9 100.0
10/08/2018 16:00 1294.97 39.0 0.00 -- 46.8 100.0
10/08/2018 15:00 1294.97 40.0 0.01 -- 46.4 100.0
10/08/2018 14:00 1294.98 41.0 0.00 -- 46.1 100.0
10/08/2018 13:00 1294.97 41.0 0.00 -- 45.8 100.0
10/08/2018 12:00 1294.97 42.0 0.00 -- 45.5 100.0
10/08/2018 11:00 1294.98 17.0 0.00 -- 45.2 100.0
10/08/2018 10:00 1294.99 65.0 0.01 -- 46.2 100.0
10/08/2018 09:00 1294.98 43.0 0.00 -- 47.8 100.0
10/08/2018 08:00 1294.98 45.0 0.00 -- 49.9 100.0
10/08/2018 07:00 1294.99 44.0 0.01 -- 49.8 100.0
10/08/2018 06:00 1294.99 44.0 0.00 -- 50.1 100.0
10/08/2018 05:00 1294.99 43.0 0.00 -- 50.9 100.0
10/08/2018 04:00 1294.99 45.0 0.00 -- 51.7 100.0
10/08/2018 03:00 1294.99 44.0 0.00 -- 52.6 100.0
10/08/2018 02:00 1294.99 45.0 0.00 -- 53.4 100.0
10/08/2018 01:00 1294.99 45.0 0.00 -- 54.2 100.0
10/08/2018 00:00 1294.99 44.0 0.00 0.03 55.3 100.0
10/07/2018 23:00 1295.00 45.0 0.00 -- 55.7 100.0
10/07/2018 22:00 1295.00 44.0 0.00 -- 55.6 100.0
10/07/2018 21:00 1295.01 46.0 0.00 -- 56.5 100.0
10/07/2018 20:00 1295.00 47.0 0.00 -- 57.6 100.0
10/07/2018 19:00 1295.00 46.0 0.00 -- 59.2 100.0
10/07/2018 18:00 1295.00 46.0 0.01 -- 60.0 100.0
10/07/2018 17:00 1295.00 46.0 0.00 -- 60.4 100.0
10/07/2018 16:00 1295.01 47.0 0.00 -- 60.7 100.0
10/07/2018 15:00 1295.01 48.0 0.00 -- 61.7 100.0
10/07/2018 14:00 1295.01 48.0 0.00 -- 62.8 100.0
10/07/2018 13:00 1295.00 46.0 0.00 -- 61.0 100.0
10/07/2018 12:00 1295.00 46.0 0.00 -- 59.7 100.0
10/07/2018 11:00 1295.00 46.0 0.00 -- 59.1 100.0
10/07/2018 10:00 1294.99 45.0 0.00 -- 58.3 100.0
10/07/2018 09:00 1295.00 44.0 0.00 -- 57.6 100.0
10/07/2018 08:00 1294.99 46.0 0.00 -- 57.2 100.0
10/07/2018 07:00 1294.98 44.0 0.00 -- 56.5 100.0
10/07/2018 06:00 1294.99 43.0 0.00 -- 56.1 100.0
10/07/2018 05:00 1294.99 45.0 0.00 -- 55.7 100.0
10/07/2018 04:00 1294.99 46.0 0.00 -- 55.4 100.0
10/07/2018 03:00 1294.98 44.0 0.00 -- 55.0 100.0
10/07/2018 02:00 1295.00 44.0 0.00 -- 54.7 100.0
10/07/2018 01:00 1295.00 46.0 0.00 -- 54.2 100.0
10/07/2018 00:00 1294.99 46.0 0.00 0.01 53.8 100.0
10/06/2018 23:00 1294.99 46.0 0.00 -- 53.3 100.0
10/06/2018 22:00 1295.00 46.0 0.00 -- 52.9 100.0
10/06/2018 21:00 1294.98 45.0 0.00 -- 52.1 99.0
10/06/2018 20:00 1294.98 42.0 0.00 -- 52.1 99.0
10/06/2018 19:00 1295.00 43.0 0.00 -- 53.0 97.0
10/06/2018 18:00 1295.00 45.0 0.00 -- 54.0 89.0
10/06/2018 17:00 1295.00 44.0 0.00 -- 54.8 85.0
10/06/2018 16:00 1295.00 46.0 0.00 -- 55.0 86.0
10/06/2018 15:00 1294.99 44.0 0.00 -- 54.2 84.0
10/06/2018 14:00 1294.99 44.0 0.00 -- 52.8 87.0
10/06/2018 13:00 1294.99 45.0 0.00 -- 52.5 86.0
10/06/2018 12:00 1294.99 46.0 0.00 -- 51.3 87.0
10/06/2018 11:00 1294.99 109.0 0.00 -- 49.3 93.0
10/06/2018 10:00 1295.00 109.0 0.00 -- 46.2 99.0
10/06/2018 09:00 1295.01 111.0 0.00 -- 42.5 100.0
10/06/2018 08:00 1295.02 113.0 0.00 -- 40.5 100.0
10/06/2018 07:00 1295.02 117.0 0.00 -- 41.2 100.0
10/06/2018 06:00 1295.02 118.0 0.00 -- 42.5 100.0
10/06/2018 05:00 1295.03 120.0 0.00 -- 41.5 99.0
10/06/2018 04:00 1295.04 121.0 0.00 -- 42.2 99.0
10/06/2018 03:00 1295.05 122.0 0.00 -- 42.5 99.0
10/06/2018 02:00 1295.06 124.0 0.00 -- 42.6 99.0
10/06/2018 01:00 1295.06 127.0 0.00 -- 43.3 99.0
10/06/2018 00:00 1295.07 129.0 0.00 0.00 42.7 99.0
10/05/2018 23:00 1295.08 130.0 0.00 -- 42.6 99.0
10/05/2018 22:00 1295.09 134.0 0.00 -- 43.2 99.0
10/05/2018 21:00 1295.10 135.0 0.00 -- 45.0 99.0
10/05/2018 20:00 1295.11 138.0 0.00 -- 48.1 96.0
10/05/2018 19:00 1295.12 140.0 0.00 -- 51.9 77.0
10/05/2018 18:00 1295.13 143.0 0.00 -- 55.1 64.0
10/05/2018 17:00 1295.14 147.0 0.00 -- 59.4 47.0
10/05/2018 16:00 1295.14 155.0 0.00 -- 59.3 41.0
10/05/2018 15:00 1295.15 143.0 0.00 -- 56.9 45.0
10/05/2018 14:00 1295.17 152.0 0.00 -- 54.8 43.0
10/05/2018 13:00 1295.17 149.0 0.00 -- 50.5 50.0
10/05/2018 12:00 1295.18 157.0 0.00 -- 48.6 50.0
10/05/2018 11:00 1295.18 162.0 0.00 -- 46.5 57.0
10/05/2018 10:00 1295.22 164.0 0.00 -- 44.1 68.0
10/05/2018 09:00 1295.22 168.0 0.00 -- 41.9 70.0
10/05/2018 08:00 1295.24 171.0 0.00 -- 42.1 80.0
10/05/2018 07:00 1295.24 178.0 0.00 -- 43.9 77.0
10/05/2018 06:00 1295.26 179.0 0.00 -- 46.0 87.0
10/05/2018 05:00 1295.26 186.0 0.00 -- 47.3 86.0
10/05/2018 04:00 1295.26 186.0 0.00 -- 50.9 78.0
10/05/2018 03:00 1295.28 189.0 0.00 -- 53.8 92.0
10/05/2018 02:00 1295.30 191.0 0.00 -- 55.4 91.0
10/05/2018 01:00 1295.32 194.0 0.00 -- 59.1 80.0
10/05/2018 00:00 1295.31 206.0 0.00 0.00 58.3 100.0
10/04/2018 23:00 1295.33 201.0 0.00 -- 60.6 100.0
10/04/2018 22:00 1295.35 206.0 0.00 -- 61.3 100.0
10/04/2018 21:00 1295.35 47.0 0.00 -- 62.8 100.0
10/04/2018 20:00 1295.35 213.0 0.00 -- 64.1 100.0
10/04/2018 19:00 1295.36 213.0 0.00 -- 64.3 99.0
10/04/2018 18:00 1295.36 216.0 0.00 -- 65.1 93.0
10/04/2018 17:00 1295.36 47.0 0.00 -- 65.5 88.0
10/04/2018 16:00 1295.38 218.0 0.00 -- 64.8 86.0
10/04/2018 15:00 1295.39 220.0 0.00 -- 64.1 85.0
10/04/2018 14:00 1295.45 228.0 0.00 -- 65.5 79.0
10/04/2018 13:00 1295.42 162.0 0.00 -- 61.7 87.0
10/04/2018 12:00 1295.44 158.0 0.00 -- 60.8 86.0
10/04/2018 11:00 1295.43 161.0 0.00 -- 58.6 91.0
10/04/2018 10:00 1295.43 160.0 0.00 -- 57.4 94.0
10/04/2018 09:00 1295.44 163.0 0.00 -- 55.8 99.0
10/04/2018 08:00 1295.46 165.0 0.00 -- 54.6 100.0
10/04/2018 07:00 1295.47 168.0 0.00 -- 54.1 100.0
10/04/2018 06:00 1295.47 170.0 0.00 -- 53.7 100.0
10/04/2018 05:00 1295.47 173.0 0.00 -- 54.0 100.0
10/04/2018 04:00 1295.47 174.0 0.00 -- 53.9 100.0
10/04/2018 03:00 1295.48 175.0 0.00 -- 54.3 99.0
10/04/2018 02:00 1295.48 174.0 0.00 -- 54.1 100.0
10/04/2018 01:00 1295.49 176.0 0.00 -- 53.8 100.0
10/04/2018 00:00 1295.49 176.0 0.00 0.00 54.0 100.0
10/03/2018 23:00 1295.49 177.0 0.00 -- 53.8 100.0
10/03/2018 22:00 1295.49 177.0 0.00 -- 54.4 100.0
10/03/2018 21:00 1295.48 178.0 0.00 -- 56.1 99.0
10/03/2018 20:00 1295.49 178.0 0.00 -- 56.4 99.0
10/03/2018 19:00 1295.49 179.0 0.00 -- 57.0 99.0
10/03/2018 18:00 1295.48 180.0 0.00 -- 56.7 89.0
10/03/2018 17:00 1295.49 177.0 0.00 -- 58.4 89.0
10/03/2018 16:00 1295.48 177.0 0.00 -- 58.9 84.0
10/03/2018 15:00 1295.47 177.0 0.00 -- 58.7 84.0
10/03/2018 14:00 1295.46 172.0 0.00 -- 57.8 89.0
10/03/2018 13:00 1295.46 170.0 0.00 -- 56.6 99.0
10/03/2018 12:00 1295.44 169.0 0.00 -- 54.5 100.0
10/03/2018 11:00 1295.44 162.0 0.01 -- 50.7 100.0
10/03/2018 10:00 1295.43 161.0 0.00 -- 49.3 100.0
10/03/2018 09:00 1295.42 159.0 0.00 -- 48.3 100.0
10/03/2018 08:00 1295.41 154.0 0.00 -- 48.1 100.0
10/03/2018 07:00 1295.39 152.0 0.00 -- 48.0 100.0
10/03/2018 06:00 1295.38 149.0 0.00 -- 47.8 100.0
10/03/2018 05:00 1295.36 142.0 0.00 -- 47.7 100.0
10/03/2018 04:00 1295.35 136.0 0.00 -- 47.6 100.0
10/03/2018 03:00 1295.33 134.0 0.01 -- 48.1 100.0
10/03/2018 02:00 1295.31 130.0 0.18 -- 48.1 100.0
10/03/2018 01:00 1295.28 121.0 0.03 -- 48.1 100.0
10/03/2018 00:00 1295.26 112.0 0.00 0.23 48.0 100.0
10/02/2018 23:00 1295.24 108.0 0.00 -- 47.9 100.0
10/02/2018 22:00 1295.22 102.0 0.00 -- 47.8 100.0
10/02/2018 21:00 1295.20 97.0 0.01 -- 47.7 100.0
10/02/2018 20:00 1295.18 92.0 0.00 -- 48.0 100.0
10/02/2018 19:00 1295.16 87.0 0.02 -- 48.5 100.0
10/02/2018 18:00 1295.14 81.0 0.31 -- 48.5 100.0
10/02/2018 17:00 1295.10 74.0 0.49 -- 48.8 100.0
10/02/2018 16:00 1295.06 66.0 0.14 -- 49.0 100.0
10/02/2018 15:00 1295.04 57.0 0.18 -- 48.6 100.0
10/02/2018 14:00 1295.02 53.0 0.01 -- 48.0 100.0
10/02/2018 13:00 1295.02 50.0 0.00 -- 48.2 100.0
10/02/2018 12:00 1295.02 50.0 0.00 -- 47.5 100.0
10/02/2018 11:00 1295.02 50.0 0.01 -- 47.1 100.0
10/02/2018 10:00 1295.02 52.0 0.02 -- 47.1 100.0
10/02/2018 09:00 1295.02 51.0 0.00 -- 46.7 100.0
10/02/2018 08:00 1295.02 51.0 0.01 -- 46.6 100.0
10/02/2018 07:00 1295.02 49.0 0.01 -- 46.5 100.0
10/02/2018 06:00 1295.02 50.0 0.00 -- 46.5 100.0
10/02/2018 05:00 1295.03 51.0 0.06 -- 46.8 100.0
10/02/2018 04:00 1295.01 52.0 0.13 -- 47.5 100.0
10/02/2018 03:00 1295.00 48.0 0.01 -- 47.8 100.0
10/02/2018 02:00 1295.01 48.0 0.00 -- 48.2 100.0
10/02/2018 01:00 1295.01 47.0 0.01 -- 48.6 100.0
10/02/2018 00:00 1295.01 46.0 0.00 1.42 49.7 100.0
10/01/2018 23:00 1295.01 48.0 0.03 -- 49.8 100.0
10/01/2018 22:00 1295.01 49.0 0.00 -- 49.8 100.0
10/01/2018 21:00 1295.01 50.0 0.00 -- 50.0 100.0
10/01/2018 20:00 1295.01 49.0 0.00 -- 50.4 100.0
10/01/2018 19:00 1295.02 49.0 0.00 -- 50.8 100.0
10/01/2018 18:00 1295.02 50.0 0.00 -- 51.7 100.0
10/01/2018 17:00 1295.02 50.0 0.01 -- 51.5 100.0
10/01/2018 16:00 1295.02 50.0 0.01 -- 52.1 100.0
10/01/2018 15:00 1295.02 51.0 0.03 -- 51.4 100.0
10/01/2018 14:00 1295.02 51.0 0.02 -- 51.0 100.0
10/01/2018 13:00 1295.02 52.0 0.01 -- 51.3 100.0
10/01/2018 12:00 1295.02 50.0 0.02 -- 50.7 100.0
10/01/2018 11:00 1295.02 51.0 0.01 -- 50.4 99.0
10/01/2018 10:00 1295.02 51.0 0.00 -- 50.5 100.0
10/01/2018 09:00 1295.03 51.0 0.00 -- 50.6 100.0
10/01/2018 08:00 1295.02 52.0 0.00 -- 49.6 99.0
10/01/2018 07:00 1295.03 52.0 0.00 -- 49.2 99.0
10/01/2018 06:00 1295.04 52.0 0.00 -- 48.6 99.0
10/01/2018 05:00 1295.04 54.0 0.00 -- 48.0 99.0
10/01/2018 04:00 1295.02 56.0 0.00 -- 48.1 99.0
10/01/2018 03:00 1295.04 53.0 0.00 -- 47.7 99.0
10/01/2018 02:00 1295.05 54.0 0.00 -- 47.1 99.0
10/01/2018 01:00 1295.05 55.0 0.00 -- 46.7 99.0
10/01/2018 00:00 1295.05 55.0 0.00 0.14 45.4 99.0
09/30/2018 23:00 1295.05 56.0 0.00 -- 44.3 99.0
09/30/2018 22:00 1295.06 59.0 0.00 -- 45.4 99.0
09/30/2018 21:00 1295.06 58.0 0.00 -- 46.8 99.0
09/30/2018 20:00 1295.07 59.0 0.00 -- 48.6 93.0
09/30/2018 19:00 1295.07 61.0 0.00 -- 53.3 74.0
09/30/2018 18:00 1295.07 60.0 0.00 -- 57.5 51.0
09/30/2018 17:00 1295.07 62.0 0.00 -- 58.2 50.0
09/30/2018 16:00 1295.07 63.0 0.00 -- 58.6 52.0
09/30/2018 15:00 1295.07 61.0 0.00 -- 56.3 57.0
09/30/2018 14:00 1295.06 57.0 0.00 -- 56.2 51.0
09/30/2018 13:00 1295.07 65.0 0.00 -- 54.4 55.0
09/30/2018 12:00 1295.07 61.0 0.00 -- 54.0 63.0
09/30/2018 11:00 1295.07 62.0 0.00 -- 50.9 75.0
09/30/2018 10:00 1295.08 63.0 0.00 -- 45.3 99.0
09/30/2018 09:00 1295.09 64.0 0.00 -- 39.7 100.0
09/30/2018 08:00 1295.10 66.0 0.00 -- 38.2 99.0
09/30/2018 07:00 1295.11 68.0 0.00 -- 37.8 99.0
09/30/2018 06:00 1295.11 69.0 0.00 -- 38.4 99.0
09/30/2018 05:00 1295.11 70.0 0.00 -- 39.3 99.0
09/30/2018 04:00 1295.11 71.0 0.00 -- 40.4 99.0
09/30/2018 03:00 1295.12 70.0 0.00 -- 42.5 99.0
09/30/2018 02:00 1295.12 72.0 0.00 -- 42.7 99.0
09/30/2018 01:00 1295.13 74.0 0.00 -- 43.0 99.0
09/30/2018 00:00 1295.14 74.0 0.00 0.00 43.8 99.0
09/29/2018 23:00 1295.13 76.0 0.00 -- 43.9 99.0
09/29/2018 22:00 1295.14 77.0 0.00 -- 45.2 99.0
09/29/2018 21:00 1295.14 77.0 0.00 -- 46.1 99.0
09/29/2018 20:00 1295.15 80.0 0.00 -- 49.0 94.0
09/29/2018 19:00 1295.15 80.0 0.00 -- 54.0 76.0
09/29/2018 18:00 1295.16 81.0 0.00 -- 57.7 51.0
09/29/2018 17:00 1295.16 82.0 0.00 -- 61.0 51.0
09/29/2018 16:00 1295.17 86.0 0.00 -- 62.5 49.0
09/29/2018 15:00 1295.18 85.0 0.00 -- 59.4 55.0
09/29/2018 14:00 1295.17 80.0 0.00 -- 56.9 64.0
09/29/2018 13:00 1295.18 87.0 0.00 -- 57.1 68.0
09/29/2018 12:00 1295.18 88.0 0.00 -- 56.9 69.0
09/29/2018 11:00 1295.18 88.0 0.00 -- 55.7 79.0
09/29/2018 10:00 1295.18 87.0 0.00 -- 51.0 100.0
09/29/2018 09:00 1295.18 87.0 0.00 -- 46.9 100.0
09/29/2018 08:00 1295.19 88.0 0.00 -- 45.2 100.0
09/29/2018 07:00 1295.19 89.0 0.00 -- 45.8 100.0
09/29/2018 06:00 1295.19 91.0 0.00 -- 46.1 100.0
09/29/2018 05:00 1295.20 91.0 0.00 -- 47.0 100.0
09/29/2018 04:00 1295.20 93.0 0.00 -- 47.5 100.0
09/29/2018 03:00 1295.21 93.0 0.00 -- 47.8 100.0
09/29/2018 02:00 1295.20 93.0 0.00 -- 48.7 100.0
09/29/2018 01:00 1295.21 95.0 0.00 -- 49.6 100.0
09/29/2018 00:00 1295.21 94.0 0.00 0.00 49.9 99.0
09/28/2018 23:00 1295.21 97.0 0.00 -- 52.9 93.0
09/28/2018 22:00 1295.22 96.0 0.00 -- 51.5 99.0
09/28/2018 21:00 1295.22 98.0 0.00 -- 52.0 99.0
09/28/2018 20:00 1295.22 98.0 0.00 -- 53.1 88.0
09/28/2018 19:00 1295.23 98.0 0.00 -- 54.0 88.0
09/28/2018 18:00 1295.23 101.0 0.00 -- 55.7 79.0
09/28/2018 17:00 1295.24 102.0 0.00 -- 57.8 71.0
09/28/2018 16:00 1295.22 101.0 0.00 -- 59.6 58.0
09/28/2018 15:00 1295.21 104.0 0.00 -- 57.6 60.0
09/28/2018 14:00 1295.20 101.0 0.00 -- 55.6 72.0
09/28/2018 13:00 1295.22 97.0 0.00 -- 51.3 99.0
09/28/2018 12:00 1295.23 102.0 0.01 -- 50.3 100.0
09/28/2018 11:00 1295.24 100.0 0.04 -- 48.6 100.0
09/28/2018 10:00 1295.24 102.0 0.01 -- 48.9 100.0
09/28/2018 09:00 1295.23 105.0 0.01 -- 49.1 100.0
09/28/2018 08:00 1295.23 101.0 0.02 -- 48.9 100.0
09/28/2018 07:00 1295.24 102.0 0.02 -- 49.1 100.0
09/28/2018 06:00 1295.23 102.0 0.02 -- 49.0 100.0
09/28/2018 05:00 1295.23 101.0 0.01 -- 48.7 99.0
09/28/2018 04:00 1295.23 102.0 0.00 -- 48.8 99.0
09/28/2018 03:00 1295.24 103.0 0.00 -- 49.0 99.0
09/28/2018 02:00 1295.24 102.0 0.00 -- 49.9 93.0
09/28/2018 01:00 1295.23 103.0 0.00 -- 51.7 78.0
09/28/2018 00:00 1295.24 102.0 0.00 0.14 52.0 83.0
09/27/2018 23:00 1295.24 104.0 0.00 -- 53.2 88.0
09/27/2018 22:00 1295.24 102.0 0.00 -- 53.9 99.0
09/27/2018 21:00 1295.23 101.0 0.00 -- 54.1 99.0
09/27/2018 20:00 1295.24 102.0 0.00 -- 54.9 93.0
09/27/2018 19:00 1295.24 103.0 0.00 -- 57.4 86.0
09/27/2018 18:00 1295.23 102.0 0.00 -- 59.5 70.0
09/27/2018 17:00 1295.24 102.0 0.00 -- 62.5 56.0
09/27/2018 16:00 1295.24 101.0 0.00 -- 63.6 55.0
09/27/2018 15:00 1295.22 94.0 0.00 -- 63.0 47.0
09/27/2018 14:00 1295.22 96.0 0.00 -- 61.0 50.0
09/27/2018 13:00 1295.22 97.0 0.00 -- 59.7 50.0
09/27/2018 12:00 1295.22 98.0 0.00 -- 57.8 58.0
09/27/2018 11:00 1295.21 98.0 0.00 -- 55.0 71.0
09/27/2018 10:00 1295.21 97.0 0.00 -- 51.5 95.0
09/27/2018 09:00 1295.21 95.0 0.00 -- 50.2 100.0
09/27/2018 08:00 1295.20 94.0 0.00 -- 49.8 100.0
09/27/2018 07:00 1295.20 93.0 0.00 -- 49.5 100.0
09/27/2018 06:00 1295.20 94.0 0.00 -- 51.7 99.0
09/27/2018 05:00 1295.19 93.0 0.00 -- 52.4 100.0
09/27/2018 04:00 1295.20 92.0 0.00 -- 54.1 100.0
09/27/2018 03:00 1295.19 91.0 0.00 -- 55.9 92.0
09/27/2018 02:00 1295.19 89.0 0.00 -- 57.8 86.0
09/27/2018 01:00 1295.19 87.0 0.01 -- 61.0 99.0
09/27/2018 00:00 1295.17 89.0 0.00 0.01 63.0 100.0
09/26/2018 23:00 1295.17 84.0 0.01 -- 63.6 100.0
09/26/2018 22:00 1295.15 85.0 0.40 -- 63.9 100.0
09/26/2018 21:00 1295.10 83.0 0.00 -- 70.2 99.0
09/26/2018 20:00 1295.10 67.0 0.00 -- 70.2 99.0
09/26/2018 19:00 1295.10 68.0 0.00 -- 71.0 93.0
09/26/2018 18:00 1295.08 68.0 0.00 -- 71.8 87.0
09/26/2018 17:00 1295.07 61.0 0.00 -- 72.7 82.0
09/26/2018 16:00 1295.05 58.0 0.00 -- 73.4 79.0
09/26/2018 15:00 1295.05 58.0 0.00 -- 72.6 81.0
09/26/2018 14:00 1295.05 57.0 0.00 -- 71.5 82.0
09/26/2018 13:00 1295.03 52.0 0.00 -- 71.7 85.0
09/26/2018 12:00 1295.04 52.0 0.00 -- 69.4 96.0
09/26/2018 11:00 1295.04 55.0 0.00 -- 67.8 100.0
09/26/2018 10:00 1295.03 52.0 0.00 -- 67.2 100.0
09/26/2018 09:00 1295.02 51.0 0.00 -- 64.9 100.0
09/26/2018 08:00 1295.03 51.0 0.00 -- 62.8 100.0
09/26/2018 07:00 1295.01 52.0 0.00 -- 62.8 100.0
09/26/2018 06:00 1295.01 49.0 0.00 -- 61.8 100.0
09/26/2018 05:00 1294.98 45.0 0.00 -- 61.6 100.0
09/26/2018 04:00 1294.98 42.0 0.00 -- 61.4 100.0
09/26/2018 03:00 1294.96 39.0 0.00 -- 58.7 100.0
09/26/2018 02:00 1294.97 40.0 0.01 -- 53.8 100.0
09/26/2018 01:00 1294.96 40.0 0.00 -- 53.6 100.0
09/26/2018 00:00 1294.95 37.0 0.03 0.42 53.8 100.0
09/25/2018 23:00 1294.93 36.0 0.02 -- 53.8 100.0
09/25/2018 22:00 1294.92 32.0 0.17 -- 54.1 100.0
09/25/2018 21:00 1294.90 30.0 0.09 -- 54.3 100.0
09/25/2018 20:00 1294.89 27.0 0.07 -- 54.6 100.0
09/25/2018 19:00 1294.88 25.0 0.12 -- 53.7 100.0
09/25/2018 18:00 1294.87 23.0 0.16 -- 52.9 100.0
09/25/2018 17:00 1294.84 21.0 0.08 -- 51.8 100.0
09/25/2018 16:00 1294.85 19.0 0.20 -- 50.5 100.0
09/25/2018 15:00 1294.84 18.0 0.13 -- 48.8 100.0
09/25/2018 14:00 1294.82 16.0 0.09 -- 48.2 100.0
09/25/2018 13:00 1294.81 16.0 0.07 -- 47.4 100.0
09/25/2018 12:00 1294.80 15.0 0.04 -- 45.3 100.0
09/25/2018 11:00 1294.80 13.0 0.08 -- 44.0 99.0
09/25/2018 10:00 1294.80 12.0 0.00 -- 44.3 93.0
09/25/2018 09:00 1294.80 13.0 0.00 -- 44.3 80.0
09/25/2018 08:00 1294.80 13.0 0.00 -- 41.6 85.0
09/25/2018 07:00 1294.80 13.0 0.00 -- 40.6 80.0
09/25/2018 06:00 1294.80 13.0 0.00 -- 40.7 88.0
09/25/2018 05:00 1294.80 13.0 0.00 -- 40.4 84.0
09/25/2018 04:00 1294.80 13.0 0.00 -- 40.3 85.0
09/25/2018 03:00 1294.81 13.0 0.00 -- 40.7 83.0
09/25/2018 02:00 1294.81 13.0 0.00 -- 40.6 87.0
09/25/2018 01:00 1294.81 14.0 0.00 -- 41.4 84.0
09/25/2018 00:00 1294.81 14.0 0.00 1.35 41.2 86.0
09/24/2018 23:00 1294.81 14.0 0.00 -- 41.7 83.0
09/24/2018 22:00 1294.81 14.0 0.00 -- 43.0 80.0
09/24/2018 21:00 1294.81 14.0 0.00 -- 45.1 82.0
09/24/2018 20:00 1294.81 14.0 0.00 -- 46.7 76.0
09/24/2018 19:00 1294.80 14.0 0.00 -- 49.4 70.0
09/24/2018 18:00 1294.81 14.0 0.00 -- 50.5 68.0
09/24/2018 17:00 1294.83 15.0 0.00 -- 54.6 55.0
09/24/2018 16:00 1294.81 14.0 0.00 -- 54.9 53.0
09/24/2018 15:00 1294.78 17.0 0.00 -- 51.6 64.0
09/24/2018 14:00 1294.81 12.0 0.00 -- 47.0 74.0
09/24/2018 13:00 1294.82 15.0 0.00 -- 46.9 74.0
09/24/2018 12:00 1294.82 15.0 0.00 -- 46.9 76.0
09/24/2018 11:00 1294.81 17.0 0.00 -- 44.8 81.0
09/24/2018 10:00 1294.83 15.0 0.00 -- 43.7 94.0
09/24/2018 09:00 1294.83 17.0 0.00 -- 44.2 99.0
09/24/2018 08:00 1294.82 17.0 0.00 -- 40.2 99.0
09/24/2018 07:00 1294.83 17.0 0.00 -- 39.7 99.0
09/24/2018 06:00 1294.83 17.0 0.00 -- 40.2 99.0
09/24/2018 05:00 1294.83 17.0 0.00 -- 41.0 99.0
09/24/2018 04:00 1294.84 17.0 0.00 -- 41.2 99.0
09/24/2018 03:00 1294.83 18.0 0.00 -- 42.8 99.0
09/24/2018 02:00 1294.84 18.0 0.00 -- 44.6 99.0
09/24/2018 01:00 1294.84 18.0 0.00 -- 47.0 100.0
09/24/2018 00:00 1294.85 18.0 0.00 0.00 46.5 100.0
09/23/2018 23:00 1294.84 19.0 0.00 -- 46.7 99.0
09/23/2018 22:00 1294.84 18.0 0.00 -- 47.5 99.0
09/23/2018 21:00 1294.85 19.0 0.00 -- 49.1 99.0
09/23/2018 20:00 1294.85 19.0 0.00 -- 50.9 94.0
09/23/2018 19:00 1294.84 19.0 0.00 -- 56.5 72.0
09/23/2018 18:00 1294.84 18.0 0.00 -- 58.5 62.0
09/23/2018 17:00 1294.86 19.0 0.00 -- 60.3 50.0
09/23/2018 16:00 1294.88 17.0 0.00 -- 59.7 50.0
09/23/2018 15:00 1294.83 19.0 0.00 -- 59.9 44.0
09/23/2018 14:00 1294.85 24.0 0.00 -- 59.3 37.0
09/23/2018 13:00 1294.84 18.0 0.00 -- 56.5 52.0
09/23/2018 12:00 1294.84 20.0 0.00 -- 55.7 57.0
09/23/2018 11:00 1294.85 19.0 0.00 -- 50.2 82.0
09/23/2018 10:00 1294.85 20.0 0.00 -- 44.2 99.0
09/23/2018 09:00 1294.86 20.0 0.00 -- 40.9 100.0
09/23/2018 08:00 1294.87 21.0 0.00 -- 37.8 99.0
09/23/2018 07:00 1294.86 22.0 0.00 -- 37.3 99.0
09/23/2018 06:00 1294.86 22.0 0.00 -- 37.8 99.0
09/23/2018 05:00 1294.87 22.0 0.00 -- 38.6 99.0
09/23/2018 04:00 1294.87 22.0 0.00 -- 39.8 99.0
09/23/2018 03:00 1294.87 22.0 0.00 -- 39.2 99.0
09/23/2018 02:00 1294.87 23.0 0.00 -- 41.0 99.0
09/23/2018 01:00 1294.88 24.0 0.00 -- 40.4 99.0
09/23/2018 00:00 1294.88 23.0 0.00 0.00 41.1 99.0
09/22/2018 23:00 1294.88 24.0 0.00 -- 42.3 99.0
09/22/2018 22:00 1294.88 24.0 0.00 -- 44.2 95.0
09/22/2018 21:00 1294.88 25.0 0.00 -- 46.4 92.0
09/22/2018 20:00 1294.89 25.0 0.00 -- 48.0 81.0
09/22/2018 19:00 1294.89 26.0 0.00 -- 53.2 60.0
09/22/2018 18:00 1294.89 26.0 0.00 -- 55.3 52.0
09/22/2018 17:00 1294.90 26.0 0.00 -- 57.7 52.0
09/22/2018 16:00 1294.92 30.0 0.00 -- 58.7 54.0
09/22/2018 15:00 1294.89 29.0 0.00 -- 58.1 53.0
09/22/2018 14:00 1294.90 28.0 0.00 -- 57.2 61.0
09/22/2018 13:00 1294.92 27.0 0.00 -- 55.9 62.0
09/22/2018 12:00 1294.93 33.0 0.00 -- 56.9 57.0
09/22/2018 11:00 1294.93 33.0 0.00 -- 57.6 65.0
09/22/2018 10:00 1294.93 31.0 0.00 -- 58.2 67.0
09/22/2018 09:00 1294.92 40.0 0.00 -- 58.1 66.0
09/22/2018 08:00 1294.93 33.0 0.00 -- 59.9 66.0
09/22/2018 07:00 1294.94 31.0 0.00 -- 63.2 71.0
09/22/2018 06:00 1294.91 32.0 0.00 -- 64.1 99.0
09/22/2018 05:00 1294.90 30.0 0.00 -- 63.6 100.0
09/22/2018 04:00 1294.88 27.0 0.00 -- 63.5 100.0
09/22/2018 03:00 1294.87 24.0 0.00 -- 63.5 100.0
09/22/2018 02:00 1294.87 24.0 0.00 -- 63.0 100.0
09/22/2018 01:00 1294.87 22.0 0.00 -- 62.6 100.0
09/22/2018 00:00 1294.83 19.0 0.00 0.00 61.8 100.0
09/21/2018 23:00 1294.85 16.0 0.00 -- 60.3 100.0
09/21/2018 22:00 1294.86 21.0 0.00 -- 60.0 99.0
09/21/2018 21:00 1294.85 22.0 0.00 -- 59.8 97.0
09/21/2018 20:00 1294.85 19.0 0.00 -- 59.9 92.0
09/21/2018 19:00 1294.86 19.0 0.00 -- 60.1 89.0
09/21/2018 18:00 1294.89 23.0 0.00 -- 59.9 89.0
09/21/2018 17:00 1294.89 27.0 0.00 -- 59.7 88.0
09/21/2018 16:00 1294.89 27.0 0.00 -- 58.8 92.0
09/21/2018 15:00 1294.89 28.0 0.00 -- 58.2 89.0
09/21/2018 14:00 1294.89 26.0 0.00 -- 57.1 87.0
09/21/2018 13:00 1294.92 28.0 0.00 -- 56.1 89.0
09/21/2018 12:00 1294.91 32.0 0.00 -- 55.5 84.0
09/21/2018 11:00 1294.93 30.0 0.00 -- 53.9 85.0
09/21/2018 10:00 1294.93 32.0 0.00 -- 54.5 81.0
09/21/2018 09:00 1294.92 32.0 0.00 -- 54.0 87.0
09/21/2018 08:00 1294.93 32.0 0.00 -- 53.5 92.0
09/21/2018 07:00 1294.94 33.0 0.00 -- 53.7 95.0
09/21/2018 06:00 1294.93 33.0 0.00 -- 53.8 98.0
09/21/2018 05:00 1294.94 34.0 0.00 -- 54.0 97.0
09/21/2018 04:00 1294.94 34.0 0.00 -- 53.5 98.0
09/21/2018 03:00 1294.94 34.0 0.00 -- 53.7 99.0
09/21/2018 02:00 1294.95 35.0 0.00 -- 53.7 99.0
09/21/2018 01:00 1294.95 36.0 0.00 -- 53.8 99.0
09/21/2018 00:00 1294.95 36.0 0.00 0.00 54.3 99.0
09/20/2018 23:00 1294.95 35.0 0.00 -- 54.6 99.0
09/20/2018 22:00 1294.96 37.0 0.00 -- 55.0 99.0
09/20/2018 21:00 1294.96 37.0 0.00 -- 55.4 99.0
09/20/2018 20:00 1294.96 38.0 0.00 -- 56.3 96.0
09/20/2018 19:00 1294.97 38.0 0.00 -- 57.8 90.0
09/20/2018 18:00 1294.96 38.0 0.00 -- 59.1 81.0
09/20/2018 17:00 1294.95 38.0 0.00 -- 61.0 76.0
09/20/2018 16:00 -- -- -- -- 61.0 73.0
09/20/2018 15:00 -- -- -- -- 60.1 76.0
09/20/2018 14:00 -- -- -- -- 57.5 82.0
09/20/2018 13:00 -- -- -- -- 56.6 83.0
09/20/2018 12:00 -- -- -- -- 55.4 89.0
09/20/2018 11:00 -- -- -- -- 54.7 93.0
09/20/2018 10:00 -- -- -- -- 54.3 94.0
09/20/2018 09:00 -- -- -- -- 53.4 99.0
09/20/2018 08:00 -- -- -- -- 52.5 99.0
09/20/2018 07:00 -- -- -- -- 52.7 99.0
09/20/2018 06:00 -- -- -- -- 52.5 99.0
09/20/2018 05:00 -- -- -- -- 53.1 99.0
09/20/2018 04:00 -- -- -- -- 53.5 99.0
09/20/2018 03:00 -- -- -- -- 53.9 99.0
09/20/2018 02:00 -- -- -- -- 53.3 99.0
09/20/2018 01:00 -- -- -- -- 55.1 99.0
09/20/2018 00:00 -- -- -- 0.00 55.6 98.0